<?xml version="1.0" encoding="UTF-8" standalone="no" ?>
<gpx xmlns="http://www.topografix.com/GPX/1/1" xmlns:xsi="http://www.w3.org/2001/XMLSchema-instance" xsi:schemaLocation="http://www.topografix.com/GPX/1/1 http://www.topografix.com/GPX/1/1/gpx.xsd" version="1.1" creator="VisuGPX - https://www.visugpx.com">
  <metadata>
    <name>17.05.2022 Etape 6 le ranc de chamoussière</name>
    <desc><![CDATA[Egalement, du col de st André au ranc de chamoussière, 1 km de 30 ou 40 % de denivelés ; trés dur mais ça vaut le coup pour le ranc et la longeagne. ]]></desc>
  </metadata>
  <trk>
    <name><![CDATA[14797682-étape 6 le ranc de chamoussière]]></name>
    <extensions>
      <line xmlns="http://www.topografix.com/GPX/gpx_style/0/2">
        <color>0000FF</color>
        <width>4</width>
      </line>
    </extensions>
    <trkseg>
      <trkpt lat="44.51956" lon="5.69789">
        <ele>774</ele>
        <time>2022-06-09T20:38:22Z</time>
      </trkpt>
      <trkpt lat="44.51958" lon="5.69787">
        <ele>774</ele>
        <time>2022-06-09T20:38:23Z</time>
      </trkpt>
      <trkpt lat="44.51959" lon="5.69789">
        <ele>774</ele>
        <time>2022-06-09T20:38:23Z</time>
      </trkpt>
      <trkpt lat="44.51956" lon="5.69776">
        <ele>774</ele>
        <time>2022-06-09T20:38:25Z</time>
      </trkpt>
      <trkpt lat="44.51954" lon="5.69791">
        <ele>774</ele>
        <time>2022-06-09T20:38:28Z</time>
      </trkpt>
      <trkpt lat="44.5195" lon="5.69793">
        <ele>774</ele>
        <time>2022-06-09T20:38:29Z</time>
      </trkpt>
      <trkpt lat="44.51949" lon="5.6979">
        <ele>774</ele>
        <time>2022-06-09T20:38:29Z</time>
      </trkpt>
      <trkpt lat="44.51958" lon="5.69787">
        <ele>774</ele>
        <time>2022-06-09T20:38:32Z</time>
      </trkpt>
      <trkpt lat="44.51959" lon="5.69789">
        <ele>774</ele>
        <time>2022-06-09T20:38:32Z</time>
      </trkpt>
      <trkpt lat="44.51959" lon="5.6982">
        <ele>775</ele>
        <time>2022-06-09T20:38:37Z</time>
      </trkpt>
      <trkpt lat="44.51964" lon="5.69827">
        <ele>775</ele>
        <time>2022-06-09T20:38:39Z</time>
      </trkpt>
      <trkpt lat="44.51976" lon="5.69876">
        <ele>775</ele>
        <time>2022-06-09T20:38:47Z</time>
      </trkpt>
      <trkpt lat="44.51982" lon="5.69891">
        <ele>774</ele>
        <time>2022-06-09T20:38:50Z</time>
      </trkpt>
      <trkpt lat="44.51988" lon="5.69898">
        <ele>774</ele>
        <time>2022-06-09T20:38:52Z</time>
      </trkpt>
      <trkpt lat="44.51999" lon="5.69897">
        <ele>774</ele>
        <time>2022-06-09T20:38:55Z</time>
      </trkpt>
      <trkpt lat="44.52005" lon="5.699">
        <ele>774</ele>
        <time>2022-06-09T20:38:56Z</time>
      </trkpt>
      <trkpt lat="44.52017" lon="5.69901">
        <ele>775</ele>
        <time>2022-06-09T20:38:59Z</time>
      </trkpt>
      <trkpt lat="44.52033" lon="5.69915">
        <ele>775</ele>
        <time>2022-06-09T20:39:03Z</time>
      </trkpt>
      <trkpt lat="44.52038" lon="5.69934">
        <ele>775</ele>
        <time>2022-06-09T20:39:07Z</time>
      </trkpt>
      <trkpt lat="44.52044" lon="5.69935">
        <ele>775</ele>
        <time>2022-06-09T20:39:08Z</time>
      </trkpt>
      <trkpt lat="44.52057" lon="5.69948">
        <ele>776</ele>
        <time>2022-06-09T20:39:12Z</time>
      </trkpt>
      <trkpt lat="44.52064" lon="5.6995">
        <ele>776</ele>
        <time>2022-06-09T20:39:13Z</time>
      </trkpt>
      <trkpt lat="44.52078" lon="5.69925">
        <ele>776</ele>
        <time>2022-06-09T20:39:19Z</time>
      </trkpt>
      <trkpt lat="44.52112" lon="5.69895">
        <ele>776</ele>
        <time>2022-06-09T20:39:28Z</time>
      </trkpt>
      <trkpt lat="44.5213" lon="5.69865">
        <ele>776</ele>
        <time>2022-06-09T20:39:35Z</time>
      </trkpt>
      <trkpt lat="44.52161" lon="5.69838">
        <ele>777</ele>
        <time>2022-06-09T20:39:43Z</time>
      </trkpt>
      <trkpt lat="44.52181" lon="5.69813">
        <ele>777</ele>
        <time>2022-06-09T20:39:49Z</time>
      </trkpt>
      <trkpt lat="44.52199" lon="5.69784">
        <ele>776</ele>
        <time>2022-06-09T20:39:56Z</time>
      </trkpt>
      <trkpt lat="44.52224" lon="5.69763">
        <ele>777</ele>
        <time>2022-06-09T20:40:03Z</time>
      </trkpt>
      <trkpt lat="44.52237" lon="5.69741">
        <ele>776</ele>
        <time>2022-06-09T20:40:07Z</time>
      </trkpt>
      <trkpt lat="44.52241" lon="5.69719">
        <ele>776</ele>
        <time>2022-06-09T20:40:11Z</time>
      </trkpt>
      <trkpt lat="44.52254" lon="5.69696">
        <ele>776</ele>
        <time>2022-06-09T20:40:16Z</time>
      </trkpt>
      <trkpt lat="44.5226" lon="5.69679">
        <ele>776</ele>
        <time>2022-06-09T20:40:19Z</time>
      </trkpt>
      <trkpt lat="44.52276" lon="5.69659">
        <ele>776</ele>
        <time>2022-06-09T20:40:24Z</time>
      </trkpt>
      <trkpt lat="44.523" lon="5.69638">
        <ele>776</ele>
        <time>2022-06-09T20:40:31Z</time>
      </trkpt>
      <trkpt lat="44.52311" lon="5.69621">
        <ele>776</ele>
        <time>2022-06-09T20:40:35Z</time>
      </trkpt>
      <trkpt lat="44.52329" lon="5.69602">
        <ele>776</ele>
        <time>2022-06-09T20:40:40Z</time>
      </trkpt>
      <trkpt lat="44.52344" lon="5.69581">
        <ele>777</ele>
        <time>2022-06-09T20:40:45Z</time>
      </trkpt>
      <trkpt lat="44.52387" lon="5.69509">
        <ele>777</ele>
        <time>2022-06-09T20:41:01Z</time>
      </trkpt>
      <trkpt lat="44.52453" lon="5.69384">
        <ele>777</ele>
        <time>2022-06-09T20:41:26Z</time>
      </trkpt>
      <trkpt lat="44.52475" lon="5.6935">
        <ele>778</ele>
        <time>2022-06-09T20:41:34Z</time>
      </trkpt>
      <trkpt lat="44.52572" lon="5.69173">
        <ele>779</ele>
        <time>2022-06-09T20:42:11Z</time>
      </trkpt>
      <trkpt lat="44.52582" lon="5.69149">
        <ele>779</ele>
        <time>2022-06-09T20:42:16Z</time>
      </trkpt>
      <trkpt lat="44.52605" lon="5.69107">
        <ele>779</ele>
        <time>2022-06-09T20:42:25Z</time>
      </trkpt>
      <trkpt lat="44.52626" lon="5.69074">
        <ele>779</ele>
        <time>2022-06-09T20:42:32Z</time>
      </trkpt>
      <trkpt lat="44.52656" lon="5.69017">
        <ele>779</ele>
        <time>2022-06-09T20:42:44Z</time>
      </trkpt>
      <trkpt lat="44.52668" lon="5.69">
        <ele>779</ele>
        <time>2022-06-09T20:42:48Z</time>
      </trkpt>
      <trkpt lat="44.52683" lon="5.68969">
        <ele>780</ele>
        <time>2022-06-09T20:42:54Z</time>
      </trkpt>
      <trkpt lat="44.52708" lon="5.68926">
        <ele>781</ele>
        <time>2022-06-09T20:43:03Z</time>
      </trkpt>
      <trkpt lat="44.52721" lon="5.68908">
        <ele>781</ele>
        <time>2022-06-09T20:43:08Z</time>
      </trkpt>
      <trkpt lat="44.52754" lon="5.68848">
        <ele>783</ele>
        <time>2022-06-09T20:43:20Z</time>
      </trkpt>
      <trkpt lat="44.52776" lon="5.68803">
        <ele>783</ele>
        <time>2022-06-09T20:43:29Z</time>
      </trkpt>
      <trkpt lat="44.5282" lon="5.68726">
        <ele>785</ele>
        <time>2022-06-09T20:43:46Z</time>
      </trkpt>
      <trkpt lat="44.52839" lon="5.68684">
        <ele>784</ele>
        <time>2022-06-09T20:43:54Z</time>
      </trkpt>
      <trkpt lat="44.52863" lon="5.68645">
        <ele>784</ele>
        <time>2022-06-09T20:44:03Z</time>
      </trkpt>
      <trkpt lat="44.52889" lon="5.68596">
        <ele>784</ele>
        <time>2022-06-09T20:44:13Z</time>
      </trkpt>
      <trkpt lat="44.5291" lon="5.68568">
        <ele>785</ele>
        <time>2022-06-09T20:44:20Z</time>
      </trkpt>
      <trkpt lat="44.5292" lon="5.68544">
        <ele>785</ele>
        <time>2022-06-09T20:44:24Z</time>
      </trkpt>
      <trkpt lat="44.52937" lon="5.68473">
        <ele>784</ele>
        <time>2022-06-09T20:44:37Z</time>
      </trkpt>
      <trkpt lat="44.52945" lon="5.6847">
        <ele>785</ele>
        <time>2022-06-09T20:44:39Z</time>
      </trkpt>
      <trkpt lat="44.52971" lon="5.68498">
        <ele>789</ele>
        <time>2022-06-09T20:44:46Z</time>
      </trkpt>
      <trkpt lat="44.5298" lon="5.68499">
        <ele>790</ele>
        <time>2022-06-09T20:44:48Z</time>
      </trkpt>
      <trkpt lat="44.5306" lon="5.68346">
        <ele>787</ele>
        <time>2022-06-09T20:45:20Z</time>
      </trkpt>
      <trkpt lat="44.5308" lon="5.68315">
        <ele>787</ele>
        <time>2022-06-09T20:45:27Z</time>
      </trkpt>
      <trkpt lat="44.53109" lon="5.68284">
        <ele>787</ele>
        <time>2022-06-09T20:45:35Z</time>
      </trkpt>
      <trkpt lat="44.53121" lon="5.68276">
        <ele>787</ele>
        <time>2022-06-09T20:45:38Z</time>
      </trkpt>
      <trkpt lat="44.53151" lon="5.68246">
        <ele>788</ele>
        <time>2022-06-09T20:45:47Z</time>
      </trkpt>
      <trkpt lat="44.53196" lon="5.68194">
        <ele>787</ele>
        <time>2022-06-09T20:46:01Z</time>
      </trkpt>
      <trkpt lat="44.53255" lon="5.68131">
        <ele>787</ele>
        <time>2022-06-09T20:46:18Z</time>
      </trkpt>
      <trkpt lat="44.5332" lon="5.68066">
        <ele>787</ele>
        <time>2022-06-09T20:46:37Z</time>
      </trkpt>
      <trkpt lat="44.5335" lon="5.68015">
        <ele>788</ele>
        <time>2022-06-09T20:46:48Z</time>
      </trkpt>
      <trkpt lat="44.53358" lon="5.68008">
        <ele>788</ele>
        <time>2022-06-09T20:46:50Z</time>
      </trkpt>
      <trkpt lat="44.53392" lon="5.67991">
        <ele>789</ele>
        <time>2022-06-09T20:46:58Z</time>
      </trkpt>
      <trkpt lat="44.53415" lon="5.67976">
        <ele>789</ele>
        <time>2022-06-09T20:47:04Z</time>
      </trkpt>
      <trkpt lat="44.53423" lon="5.67974">
        <ele>790</ele>
        <time>2022-06-09T20:47:06Z</time>
      </trkpt>
      <trkpt lat="44.53431" lon="5.67982">
        <ele>791</ele>
        <time>2022-06-09T20:47:08Z</time>
      </trkpt>
      <trkpt lat="44.53452" lon="5.68033">
        <ele>795</ele>
        <time>2022-06-09T20:47:18Z</time>
      </trkpt>
      <trkpt lat="44.53461" lon="5.68065">
        <ele>798</ele>
        <time>2022-06-09T20:47:24Z</time>
      </trkpt>
      <trkpt lat="44.53469" lon="5.68073">
        <ele>800</ele>
        <time>2022-06-09T20:47:26Z</time>
      </trkpt>
      <trkpt lat="44.53478" lon="5.68091">
        <ele>801</ele>
        <time>2022-06-09T20:47:30Z</time>
      </trkpt>
      <trkpt lat="44.53505" lon="5.68116">
        <ele>804</ele>
        <time>2022-06-09T20:47:37Z</time>
      </trkpt>
      <trkpt lat="44.53523" lon="5.68122">
        <ele>806</ele>
        <time>2022-06-09T20:47:42Z</time>
      </trkpt>
      <trkpt lat="44.53552" lon="5.68138">
        <ele>809</ele>
        <time>2022-06-09T20:47:49Z</time>
      </trkpt>
      <trkpt lat="44.53559" lon="5.68145">
        <ele>809</ele>
        <time>2022-06-09T20:47:51Z</time>
      </trkpt>
      <trkpt lat="44.53555" lon="5.68181">
        <ele>807</ele>
        <time>2022-06-09T20:47:57Z</time>
      </trkpt>
      <trkpt lat="44.53576" lon="5.68208">
        <ele>808</ele>
        <time>2022-06-09T20:48:04Z</time>
      </trkpt>
      <trkpt lat="44.53583" lon="5.68224">
        <ele>808</ele>
        <time>2022-06-09T20:48:07Z</time>
      </trkpt>
      <trkpt lat="44.53576" lon="5.68253">
        <ele>805</ele>
        <time>2022-06-09T20:48:12Z</time>
      </trkpt>
      <trkpt lat="44.53578" lon="5.68257">
        <ele>806</ele>
        <time>2022-06-09T20:48:13Z</time>
      </trkpt>
      <trkpt lat="44.53589" lon="5.68266">
        <ele>807</ele>
        <time>2022-06-09T20:48:16Z</time>
      </trkpt>
      <trkpt lat="44.53595" lon="5.68267">
        <ele>807</ele>
        <time>2022-06-09T20:48:17Z</time>
      </trkpt>
      <trkpt lat="44.53612" lon="5.68264">
        <ele>809</ele>
        <time>2022-06-09T20:48:21Z</time>
      </trkpt>
      <trkpt lat="44.53629" lon="5.68257">
        <ele>810</ele>
        <time>2022-06-09T20:48:25Z</time>
      </trkpt>
      <trkpt lat="44.53642" lon="5.6828">
        <ele>811</ele>
        <time>2022-06-09T20:48:30Z</time>
      </trkpt>
      <trkpt lat="44.53654" lon="5.68289">
        <ele>812</ele>
        <time>2022-06-09T20:48:33Z</time>
      </trkpt>
      <trkpt lat="44.5367" lon="5.68286">
        <ele>813</ele>
        <time>2022-06-09T20:48:37Z</time>
      </trkpt>
      <trkpt lat="44.53671" lon="5.68292">
        <ele>813</ele>
        <time>2022-06-09T20:48:38Z</time>
      </trkpt>
      <trkpt lat="44.5368" lon="5.68297">
        <ele>813</ele>
        <time>2022-06-09T20:48:40Z</time>
      </trkpt>
      <trkpt lat="44.53696" lon="5.68313">
        <ele>813</ele>
        <time>2022-06-09T20:48:45Z</time>
      </trkpt>
      <trkpt lat="44.53707" lon="5.68329">
        <ele>813</ele>
        <time>2022-06-09T20:48:49Z</time>
      </trkpt>
      <trkpt lat="44.53716" lon="5.68331">
        <ele>813</ele>
        <time>2022-06-09T20:48:51Z</time>
      </trkpt>
      <trkpt lat="44.53723" lon="5.68321">
        <ele>813</ele>
        <time>2022-06-09T20:48:53Z</time>
      </trkpt>
      <trkpt lat="44.53732" lon="5.68322">
        <ele>814</ele>
        <time>2022-06-09T20:48:55Z</time>
      </trkpt>
      <trkpt lat="44.53735" lon="5.68319">
        <ele>814</ele>
        <time>2022-06-09T20:48:56Z</time>
      </trkpt>
      <trkpt lat="44.53738" lon="5.68311">
        <ele>814</ele>
        <time>2022-06-09T20:48:58Z</time>
      </trkpt>
      <trkpt lat="44.53748" lon="5.68303">
        <ele>815</ele>
        <time>2022-06-09T20:49:00Z</time>
      </trkpt>
      <trkpt lat="44.53755" lon="5.68287">
        <ele>816</ele>
        <time>2022-06-09T20:49:03Z</time>
      </trkpt>
      <trkpt lat="44.53763" lon="5.68281">
        <ele>816</ele>
        <time>2022-06-09T20:49:06Z</time>
      </trkpt>
      <trkpt lat="44.53785" lon="5.68252">
        <ele>817</ele>
        <time>2022-06-09T20:49:13Z</time>
      </trkpt>
      <trkpt lat="44.53801" lon="5.68239">
        <ele>817</ele>
        <time>2022-06-09T20:49:17Z</time>
      </trkpt>
      <trkpt lat="44.53815" lon="5.68221">
        <ele>818</ele>
        <time>2022-06-09T20:49:21Z</time>
      </trkpt>
      <trkpt lat="44.53822" lon="5.68205">
        <ele>819</ele>
        <time>2022-06-09T20:49:25Z</time>
      </trkpt>
      <trkpt lat="44.53833" lon="5.68209">
        <ele>819</ele>
        <time>2022-06-09T20:49:27Z</time>
      </trkpt>
      <trkpt lat="44.53853" lon="5.68228">
        <ele>819</ele>
        <time>2022-06-09T20:49:33Z</time>
      </trkpt>
      <trkpt lat="44.53871" lon="5.68238">
        <ele>819</ele>
        <time>2022-06-09T20:49:37Z</time>
      </trkpt>
      <trkpt lat="44.53884" lon="5.68241">
        <ele>820</ele>
        <time>2022-06-09T20:49:40Z</time>
      </trkpt>
      <trkpt lat="44.53893" lon="5.68238">
        <ele>820</ele>
        <time>2022-06-09T20:49:43Z</time>
      </trkpt>
      <trkpt lat="44.53895" lon="5.68231">
        <ele>820</ele>
        <time>2022-06-09T20:49:44Z</time>
      </trkpt>
      <trkpt lat="44.53904" lon="5.68234">
        <ele>820</ele>
        <time>2022-06-09T20:49:46Z</time>
      </trkpt>
      <trkpt lat="44.53918" lon="5.68248">
        <ele>821</ele>
        <time>2022-06-09T20:49:50Z</time>
      </trkpt>
      <trkpt lat="44.53927" lon="5.68248">
        <ele>822</ele>
        <time>2022-06-09T20:49:52Z</time>
      </trkpt>
      <trkpt lat="44.53934" lon="5.68252">
        <ele>823</ele>
        <time>2022-06-09T20:49:54Z</time>
      </trkpt>
      <trkpt lat="44.53951" lon="5.68248">
        <ele>824</ele>
        <time>2022-06-09T20:49:58Z</time>
      </trkpt>
      <trkpt lat="44.53958" lon="5.68249">
        <ele>825</ele>
        <time>2022-06-09T20:50:00Z</time>
      </trkpt>
      <trkpt lat="44.53967" lon="5.68244">
        <ele>826</ele>
        <time>2022-06-09T20:50:02Z</time>
      </trkpt>
      <trkpt lat="44.53982" lon="5.68249">
        <ele>827</ele>
        <time>2022-06-09T20:50:05Z</time>
      </trkpt>
      <trkpt lat="44.53993" lon="5.68245">
        <ele>828</ele>
        <time>2022-06-09T20:50:08Z</time>
      </trkpt>
      <trkpt lat="44.54022" lon="5.68253">
        <ele>833</ele>
        <time>2022-06-09T20:50:15Z</time>
      </trkpt>
      <trkpt lat="44.54043" lon="5.68246">
        <ele>836</ele>
        <time>2022-06-09T20:50:20Z</time>
      </trkpt>
      <trkpt lat="44.54047" lon="5.68242">
        <ele>837</ele>
        <time>2022-06-09T20:50:21Z</time>
      </trkpt>
      <trkpt lat="44.54067" lon="5.68246">
        <ele>841</ele>
        <time>2022-06-09T20:50:26Z</time>
      </trkpt>
      <trkpt lat="44.54078" lon="5.68251">
        <ele>843</ele>
        <time>2022-06-09T20:50:29Z</time>
      </trkpt>
      <trkpt lat="44.54084" lon="5.68245">
        <ele>844</ele>
        <time>2022-06-09T20:50:30Z</time>
      </trkpt>
      <trkpt lat="44.54101" lon="5.68246">
        <ele>848</ele>
        <time>2022-06-09T20:50:34Z</time>
      </trkpt>
      <trkpt lat="44.54106" lon="5.68244">
        <ele>848</ele>
        <time>2022-06-09T20:50:35Z</time>
      </trkpt>
      <trkpt lat="44.54114" lon="5.68253">
        <ele>851</ele>
        <time>2022-06-09T20:50:38Z</time>
      </trkpt>
      <trkpt lat="44.54121" lon="5.68252">
        <ele>852</ele>
        <time>2022-06-09T20:50:40Z</time>
      </trkpt>
      <trkpt lat="44.54123" lon="5.68254">
        <ele>852</ele>
        <time>2022-06-09T20:50:40Z</time>
      </trkpt>
      <trkpt lat="44.54126" lon="5.68258">
        <ele>853</ele>
        <time>2022-06-09T20:50:41Z</time>
      </trkpt>
      <trkpt lat="44.54127" lon="5.68268">
        <ele>853</ele>
        <time>2022-06-09T20:50:43Z</time>
      </trkpt>
      <trkpt lat="44.54141" lon="5.68283">
        <ele>855</ele>
        <time>2022-06-09T20:50:47Z</time>
      </trkpt>
      <trkpt lat="44.54151" lon="5.68288">
        <ele>858</ele>
        <time>2022-06-09T20:50:49Z</time>
      </trkpt>
      <trkpt lat="44.54159" lon="5.68296">
        <ele>859</ele>
        <time>2022-06-09T20:50:52Z</time>
      </trkpt>
      <trkpt lat="44.54162" lon="5.68303">
        <ele>860</ele>
        <time>2022-06-09T20:50:53Z</time>
      </trkpt>
      <trkpt lat="44.54171" lon="5.68304">
        <ele>862</ele>
        <time>2022-06-09T20:50:55Z</time>
      </trkpt>
      <trkpt lat="44.54174" lon="5.68308">
        <ele>863</ele>
        <time>2022-06-09T20:50:56Z</time>
      </trkpt>
      <trkpt lat="44.54178" lon="5.68308">
        <ele>864</ele>
        <time>2022-06-09T20:50:57Z</time>
      </trkpt>
      <trkpt lat="44.54185" lon="5.68317">
        <ele>867</ele>
        <time>2022-06-09T20:50:59Z</time>
      </trkpt>
      <trkpt lat="44.54193" lon="5.6832">
        <ele>870</ele>
        <time>2022-06-09T20:51:01Z</time>
      </trkpt>
      <trkpt lat="44.54193" lon="5.68324">
        <ele>870</ele>
        <time>2022-06-09T20:51:02Z</time>
      </trkpt>
      <trkpt lat="44.54201" lon="5.68322">
        <ele>872</ele>
        <time>2022-06-09T20:51:04Z</time>
      </trkpt>
      <trkpt lat="44.54207" lon="5.68329">
        <ele>875</ele>
        <time>2022-06-09T20:51:06Z</time>
      </trkpt>
      <trkpt lat="44.54215" lon="5.68325">
        <ele>878</ele>
        <time>2022-06-09T20:51:08Z</time>
      </trkpt>
      <trkpt lat="44.54217" lon="5.68321">
        <ele>878</ele>
        <time>2022-06-09T20:51:08Z</time>
      </trkpt>
      <trkpt lat="44.54216" lon="5.68314">
        <ele>877</ele>
        <time>2022-06-09T20:51:10Z</time>
      </trkpt>
      <trkpt lat="44.54227" lon="5.68305">
        <ele>881</ele>
        <time>2022-06-09T20:51:12Z</time>
      </trkpt>
      <trkpt lat="44.54232" lon="5.68289">
        <ele>881</ele>
        <time>2022-06-09T20:51:15Z</time>
      </trkpt>
      <trkpt lat="44.54235" lon="5.68288">
        <ele>882</ele>
        <time>2022-06-09T20:51:16Z</time>
      </trkpt>
      <trkpt lat="44.54247" lon="5.68267">
        <ele>884</ele>
        <time>2022-06-09T20:51:21Z</time>
      </trkpt>
      <trkpt lat="44.54255" lon="5.68262">
        <ele>885</ele>
        <time>2022-06-09T20:51:23Z</time>
      </trkpt>
      <trkpt lat="44.54257" lon="5.68257">
        <ele>885</ele>
        <time>2022-06-09T20:51:24Z</time>
      </trkpt>
      <trkpt lat="44.54273" lon="5.68242">
        <ele>885</ele>
        <time>2022-06-09T20:51:28Z</time>
      </trkpt>
      <trkpt lat="44.54281" lon="5.68226">
        <ele>882</ele>
        <time>2022-06-09T20:51:31Z</time>
      </trkpt>
      <trkpt lat="44.54285" lon="5.68208">
        <ele>879</ele>
        <time>2022-06-09T20:51:34Z</time>
      </trkpt>
      <trkpt lat="44.54288" lon="5.68205">
        <ele>878</ele>
        <time>2022-06-09T20:51:35Z</time>
      </trkpt>
      <trkpt lat="44.54304" lon="5.68204">
        <ele>880</ele>
        <time>2022-06-09T20:51:39Z</time>
      </trkpt>
      <trkpt lat="44.54319" lon="5.6821">
        <ele>883</ele>
        <time>2022-06-09T20:51:43Z</time>
      </trkpt>
      <trkpt lat="44.54322" lon="5.68208">
        <ele>882</ele>
        <time>2022-06-09T20:51:43Z</time>
      </trkpt>
      <trkpt lat="44.5433" lon="5.68217">
        <ele>886</ele>
        <time>2022-06-09T20:51:46Z</time>
      </trkpt>
      <trkpt lat="44.54343" lon="5.68225">
        <ele>887</ele>
        <time>2022-06-09T20:51:49Z</time>
      </trkpt>
      <trkpt lat="44.54342" lon="5.68227">
        <ele>887</ele>
        <time>2022-06-09T20:51:50Z</time>
      </trkpt>
      <trkpt lat="44.54346" lon="5.68231">
        <ele>888</ele>
        <time>2022-06-09T20:51:51Z</time>
      </trkpt>
      <trkpt lat="44.54358" lon="5.68236">
        <ele>887</ele>
        <time>2022-06-09T20:51:54Z</time>
      </trkpt>
      <trkpt lat="44.5437" lon="5.68237">
        <ele>885</ele>
        <time>2022-06-09T20:51:56Z</time>
      </trkpt>
      <trkpt lat="44.54405" lon="5.68215">
        <ele>872</ele>
        <time>2022-06-09T20:52:05Z</time>
      </trkpt>
      <trkpt lat="44.54416" lon="5.68216">
        <ele>870</ele>
        <time>2022-06-09T20:52:08Z</time>
      </trkpt>
      <trkpt lat="44.54433" lon="5.68212">
        <ele>866</ele>
        <time>2022-06-09T20:52:12Z</time>
      </trkpt>
      <trkpt lat="44.54457" lon="5.68186">
        <ele>857</ele>
        <time>2022-06-09T20:52:19Z</time>
      </trkpt>
      <trkpt lat="44.54463" lon="5.68184">
        <ele>855</ele>
        <time>2022-06-09T20:52:21Z</time>
      </trkpt>
      <trkpt lat="44.54476" lon="5.68171">
        <ele>851</ele>
        <time>2022-06-09T20:52:24Z</time>
      </trkpt>
      <trkpt lat="44.54483" lon="5.68169">
        <ele>850</ele>
        <time>2022-06-09T20:52:26Z</time>
      </trkpt>
      <trkpt lat="44.5449" lon="5.68151">
        <ele>846</ele>
        <time>2022-06-09T20:52:29Z</time>
      </trkpt>
      <trkpt lat="44.54497" lon="5.68116">
        <ele>838</ele>
        <time>2022-06-09T20:52:35Z</time>
      </trkpt>
      <trkpt lat="44.54505" lon="5.68104">
        <ele>835</ele>
        <time>2022-06-09T20:52:38Z</time>
      </trkpt>
      <trkpt lat="44.54516" lon="5.68094">
        <ele>833</ele>
        <time>2022-06-09T20:52:41Z</time>
      </trkpt>
      <trkpt lat="44.54523" lon="5.68091">
        <ele>832</ele>
        <time>2022-06-09T20:52:43Z</time>
      </trkpt>
      <trkpt lat="44.54536" lon="5.68091">
        <ele>832</ele>
        <time>2022-06-09T20:52:46Z</time>
      </trkpt>
      <trkpt lat="44.54542" lon="5.68085">
        <ele>831</ele>
        <time>2022-06-09T20:52:48Z</time>
      </trkpt>
      <trkpt lat="44.54546" lon="5.68085">
        <ele>831</ele>
        <time>2022-06-09T20:52:49Z</time>
      </trkpt>
      <trkpt lat="44.54553" lon="5.68091">
        <ele>832</ele>
        <time>2022-06-09T20:52:51Z</time>
      </trkpt>
      <trkpt lat="44.54559" lon="5.68092">
        <ele>832</ele>
        <time>2022-06-09T20:52:52Z</time>
      </trkpt>
      <trkpt lat="44.54565" lon="5.68089">
        <ele>832</ele>
        <time>2022-06-09T20:52:53Z</time>
      </trkpt>
      <trkpt lat="44.54585" lon="5.68066">
        <ele>830</ele>
        <time>2022-06-09T20:52:59Z</time>
      </trkpt>
      <trkpt lat="44.54591" lon="5.68063">
        <ele>831</ele>
        <time>2022-06-09T20:53:01Z</time>
      </trkpt>
      <trkpt lat="44.54596" lon="5.68065">
        <ele>831</ele>
        <time>2022-06-09T20:53:02Z</time>
      </trkpt>
      <trkpt lat="44.54602" lon="5.68043">
        <ele>830</ele>
        <time>2022-06-09T20:53:06Z</time>
      </trkpt>
      <trkpt lat="44.54609" lon="5.68033">
        <ele>830</ele>
        <time>2022-06-09T20:53:08Z</time>
      </trkpt>
      <trkpt lat="44.54633" lon="5.68036">
        <ele>832</ele>
        <time>2022-06-09T20:53:14Z</time>
      </trkpt>
      <trkpt lat="44.54657" lon="5.68013">
        <ele>833</ele>
        <time>2022-06-09T20:53:21Z</time>
      </trkpt>
      <trkpt lat="44.54665" lon="5.6801">
        <ele>833</ele>
        <time>2022-06-09T20:53:23Z</time>
      </trkpt>
      <trkpt lat="44.5469" lon="5.67988">
        <ele>833</ele>
        <time>2022-06-09T20:53:30Z</time>
      </trkpt>
      <trkpt lat="44.54739" lon="5.67954">
        <ele>833</ele>
        <time>2022-06-09T20:53:42Z</time>
      </trkpt>
      <trkpt lat="44.54751" lon="5.67951">
        <ele>833</ele>
        <time>2022-06-09T20:53:45Z</time>
      </trkpt>
      <trkpt lat="44.54774" lon="5.67957">
        <ele>835</ele>
        <time>2022-06-09T20:53:51Z</time>
      </trkpt>
      <trkpt lat="44.548" lon="5.67949">
        <ele>835</ele>
        <time>2022-06-09T20:53:57Z</time>
      </trkpt>
      <trkpt lat="44.54809" lon="5.67942">
        <ele>835</ele>
        <time>2022-06-09T20:53:59Z</time>
      </trkpt>
      <trkpt lat="44.54819" lon="5.67938">
        <ele>835</ele>
        <time>2022-06-09T20:54:02Z</time>
      </trkpt>
      <trkpt lat="44.54852" lon="5.67936">
        <ele>837</ele>
        <time>2022-06-09T20:54:10Z</time>
      </trkpt>
      <trkpt lat="44.54868" lon="5.6793">
        <ele>837</ele>
        <time>2022-06-09T20:54:13Z</time>
      </trkpt>
      <trkpt lat="44.54894" lon="5.67914">
        <ele>836</ele>
        <time>2022-06-09T20:54:20Z</time>
      </trkpt>
      <trkpt lat="44.54921" lon="5.67913">
        <ele>838</ele>
        <time>2022-06-09T20:54:26Z</time>
      </trkpt>
      <trkpt lat="44.54933" lon="5.6791">
        <ele>839</ele>
        <time>2022-06-09T20:54:29Z</time>
      </trkpt>
      <trkpt lat="44.54958" lon="5.67887">
        <ele>838</ele>
        <time>2022-06-09T20:54:36Z</time>
      </trkpt>
      <trkpt lat="44.54991" lon="5.67864">
        <ele>838</ele>
        <time>2022-06-09T20:54:45Z</time>
      </trkpt>
      <trkpt lat="44.55009" lon="5.67817">
        <ele>835</ele>
        <time>2022-06-09T20:54:54Z</time>
      </trkpt>
      <trkpt lat="44.55032" lon="5.67783">
        <ele>836</ele>
        <time>2022-06-09T20:55:01Z</time>
      </trkpt>
      <trkpt lat="44.55061" lon="5.67757">
        <ele>837</ele>
        <time>2022-06-09T20:55:09Z</time>
      </trkpt>
      <trkpt lat="44.55098" lon="5.67738">
        <ele>838</ele>
        <time>2022-06-09T20:55:19Z</time>
      </trkpt>
      <trkpt lat="44.55114" lon="5.67727">
        <ele>838</ele>
        <time>2022-06-09T20:55:23Z</time>
      </trkpt>
      <trkpt lat="44.55132" lon="5.67711">
        <ele>839</ele>
        <time>2022-06-09T20:55:28Z</time>
      </trkpt>
      <trkpt lat="44.55158" lon="5.67682">
        <ele>838</ele>
        <time>2022-06-09T20:55:36Z</time>
      </trkpt>
      <trkpt lat="44.55159" lon="5.67677">
        <ele>838</ele>
        <time>2022-06-09T20:55:36Z</time>
      </trkpt>
      <trkpt lat="44.55156" lon="5.67666">
        <ele>837</ele>
        <time>2022-06-09T20:55:38Z</time>
      </trkpt>
      <trkpt lat="44.55143" lon="5.67646">
        <ele>835</ele>
        <time>2022-06-09T20:55:43Z</time>
      </trkpt>
      <trkpt lat="44.55131" lon="5.67617">
        <ele>833</ele>
        <time>2022-06-09T20:55:48Z</time>
      </trkpt>
      <trkpt lat="44.55099" lon="5.67484">
        <ele>828</ele>
        <time>2022-06-09T20:56:12Z</time>
      </trkpt>
      <trkpt lat="44.55099" lon="5.67472">
        <ele>828</ele>
        <time>2022-06-09T20:56:14Z</time>
      </trkpt>
      <trkpt lat="44.55103" lon="5.67464">
        <ele>828</ele>
        <time>2022-06-09T20:56:15Z</time>
      </trkpt>
      <trkpt lat="44.55117" lon="5.6746">
        <ele>828</ele>
        <time>2022-06-09T20:56:19Z</time>
      </trkpt>
      <trkpt lat="44.55131" lon="5.67461">
        <ele>829</ele>
        <time>2022-06-09T20:56:22Z</time>
      </trkpt>
      <trkpt lat="44.55169" lon="5.67458">
        <ele>830</ele>
        <time>2022-06-09T20:56:31Z</time>
      </trkpt>
      <trkpt lat="44.55178" lon="5.67452">
        <ele>830</ele>
        <time>2022-06-09T20:56:33Z</time>
      </trkpt>
      <trkpt lat="44.55203" lon="5.67411">
        <ele>831</ele>
        <time>2022-06-09T20:56:42Z</time>
      </trkpt>
      <trkpt lat="44.55216" lon="5.67402">
        <ele>832</ele>
        <time>2022-06-09T20:56:46Z</time>
      </trkpt>
      <trkpt lat="44.55238" lon="5.67399">
        <ele>832</ele>
        <time>2022-06-09T20:56:51Z</time>
      </trkpt>
      <trkpt lat="44.55264" lon="5.67408">
        <ele>834</ele>
        <time>2022-06-09T20:56:57Z</time>
      </trkpt>
      <trkpt lat="44.55279" lon="5.67405">
        <ele>834</ele>
        <time>2022-06-09T20:57:01Z</time>
      </trkpt>
      <trkpt lat="44.55285" lon="5.67396">
        <ele>835</ele>
        <time>2022-06-09T20:57:03Z</time>
      </trkpt>
      <trkpt lat="44.553" lon="5.67345">
        <ele>835</ele>
        <time>2022-06-09T20:57:12Z</time>
      </trkpt>
      <trkpt lat="44.55305" lon="5.6734">
        <ele>835</ele>
        <time>2022-06-09T20:57:13Z</time>
      </trkpt>
      <trkpt lat="44.55357" lon="5.67328">
        <ele>839</ele>
        <time>2022-06-09T20:57:26Z</time>
      </trkpt>
      <trkpt lat="44.5538" lon="5.67316">
        <ele>842</ele>
        <time>2022-06-09T20:57:31Z</time>
      </trkpt>
      <trkpt lat="44.55391" lon="5.67325">
        <ele>843</ele>
        <time>2022-06-09T20:57:34Z</time>
      </trkpt>
      <trkpt lat="44.55415" lon="5.67363">
        <ele>844</ele>
        <time>2022-06-09T20:57:43Z</time>
      </trkpt>
      <trkpt lat="44.55442" lon="5.67394">
        <ele>846</ele>
        <time>2022-06-09T20:57:51Z</time>
      </trkpt>
      <trkpt lat="44.55474" lon="5.67459">
        <ele>844</ele>
        <time>2022-06-09T20:58:04Z</time>
      </trkpt>
      <trkpt lat="44.55487" lon="5.67474">
        <ele>844</ele>
        <time>2022-06-09T20:58:08Z</time>
      </trkpt>
      <trkpt lat="44.55504" lon="5.67487">
        <ele>844</ele>
        <time>2022-06-09T20:58:12Z</time>
      </trkpt>
      <trkpt lat="44.55529" lon="5.67512">
        <ele>845</ele>
        <time>2022-06-09T20:58:20Z</time>
      </trkpt>
      <trkpt lat="44.55568" lon="5.67564">
        <ele>846</ele>
        <time>2022-06-09T20:58:32Z</time>
      </trkpt>
      <trkpt lat="44.55577" lon="5.67578">
        <ele>846</ele>
        <time>2022-06-09T20:58:35Z</time>
      </trkpt>
      <trkpt lat="44.55581" lon="5.67596">
        <ele>846</ele>
        <time>2022-06-09T20:58:38Z</time>
      </trkpt>
      <trkpt lat="44.55588" lon="5.67608">
        <ele>847</ele>
        <time>2022-06-09T20:58:41Z</time>
      </trkpt>
      <trkpt lat="44.55593" lon="5.67614">
        <ele>847</ele>
        <time>2022-06-09T20:58:43Z</time>
      </trkpt>
      <trkpt lat="44.55613" lon="5.67624">
        <ele>849</ele>
        <time>2022-06-09T20:58:48Z</time>
      </trkpt>
      <trkpt lat="44.55627" lon="5.67638">
        <ele>850</ele>
        <time>2022-06-09T20:58:52Z</time>
      </trkpt>
      <trkpt lat="44.55642" lon="5.67667">
        <ele>850</ele>
        <time>2022-06-09T20:58:58Z</time>
      </trkpt>
      <trkpt lat="44.55653" lon="5.67682">
        <ele>851</ele>
        <time>2022-06-09T20:59:01Z</time>
      </trkpt>
      <trkpt lat="44.557" lon="5.67731">
        <ele>855</ele>
        <time>2022-06-09T20:59:15Z</time>
      </trkpt>
      <trkpt lat="44.55724" lon="5.67771">
        <ele>857</ele>
        <time>2022-06-09T20:59:23Z</time>
      </trkpt>
      <trkpt lat="44.55743" lon="5.67784">
        <ele>859</ele>
        <time>2022-06-09T20:59:28Z</time>
      </trkpt>
      <trkpt lat="44.5575" lon="5.67792">
        <ele>859</ele>
        <time>2022-06-09T20:59:31Z</time>
      </trkpt>
      <trkpt lat="44.55765" lon="5.67817">
        <ele>861</ele>
        <time>2022-06-09T20:59:36Z</time>
      </trkpt>
      <trkpt lat="44.55778" lon="5.67858">
        <ele>861</ele>
        <time>2022-06-09T20:59:43Z</time>
      </trkpt>
      <trkpt lat="44.5579" lon="5.67884">
        <ele>862</ele>
        <time>2022-06-09T20:59:49Z</time>
      </trkpt>
      <trkpt lat="44.55823" lon="5.67925">
        <ele>864</ele>
        <time>2022-06-09T20:59:59Z</time>
      </trkpt>
      <trkpt lat="44.55848" lon="5.67963">
        <ele>867</ele>
        <time>2022-06-09T21:00:07Z</time>
      </trkpt>
      <trkpt lat="44.55854" lon="5.67976">
        <ele>867</ele>
        <time>2022-06-09T21:00:10Z</time>
      </trkpt>
      <trkpt lat="44.55859" lon="5.67981">
        <ele>868</ele>
        <time>2022-06-09T21:00:11Z</time>
      </trkpt>
      <trkpt lat="44.55866" lon="5.6798">
        <ele>868</ele>
        <time>2022-06-09T21:00:13Z</time>
      </trkpt>
      <trkpt lat="44.55872" lon="5.67982">
        <ele>868</ele>
        <time>2022-06-09T21:00:15Z</time>
      </trkpt>
      <trkpt lat="44.55901" lon="5.67997">
        <ele>870</ele>
        <time>2022-06-09T21:00:22Z</time>
      </trkpt>
      <trkpt lat="44.55935" lon="5.6802">
        <ele>872</ele>
        <time>2022-06-09T21:00:31Z</time>
      </trkpt>
      <trkpt lat="44.55943" lon="5.68018">
        <ele>873</ele>
        <time>2022-06-09T21:00:33Z</time>
      </trkpt>
      <trkpt lat="44.55968" lon="5.67986">
        <ele>876</ele>
        <time>2022-06-09T21:00:40Z</time>
      </trkpt>
      <trkpt lat="44.55979" lon="5.6798">
        <ele>877</ele>
        <time>2022-06-09T21:00:43Z</time>
      </trkpt>
      <trkpt lat="44.55986" lon="5.6798">
        <ele>878</ele>
        <time>2022-06-09T21:00:45Z</time>
      </trkpt>
      <trkpt lat="44.56009" lon="5.67995">
        <ele>880</ele>
        <time>2022-06-09T21:00:51Z</time>
      </trkpt>
      <trkpt lat="44.5602" lon="5.67997">
        <ele>881</ele>
        <time>2022-06-09T21:00:53Z</time>
      </trkpt>
      <trkpt lat="44.56034" lon="5.68008">
        <ele>882</ele>
        <time>2022-06-09T21:00:57Z</time>
      </trkpt>
      <trkpt lat="44.56044" lon="5.68011">
        <ele>884</ele>
        <time>2022-06-09T21:00:59Z</time>
      </trkpt>
      <trkpt lat="44.56065" lon="5.68006">
        <ele>887</ele>
        <time>2022-06-09T21:01:04Z</time>
      </trkpt>
      <trkpt lat="44.56072" lon="5.67994">
        <ele>888</ele>
        <time>2022-06-09T21:01:07Z</time>
      </trkpt>
      <trkpt lat="44.56081" lon="5.67963">
        <ele>893</ele>
        <time>2022-06-09T21:01:13Z</time>
      </trkpt>
      <trkpt lat="44.56081" lon="5.67937">
        <ele>896</ele>
        <time>2022-06-09T21:01:17Z</time>
      </trkpt>
      <trkpt lat="44.56077" lon="5.67927">
        <ele>897</ele>
        <time>2022-06-09T21:01:19Z</time>
      </trkpt>
      <trkpt lat="44.56068" lon="5.67916">
        <ele>896</ele>
        <time>2022-06-09T21:01:22Z</time>
      </trkpt>
      <trkpt lat="44.56065" lon="5.67906">
        <ele>898</ele>
        <time>2022-06-09T21:01:23Z</time>
      </trkpt>
      <trkpt lat="44.56065" lon="5.67897">
        <ele>900</ele>
        <time>2022-06-09T21:01:25Z</time>
      </trkpt>
      <trkpt lat="44.5607" lon="5.67892">
        <ele>903</ele>
        <time>2022-06-09T21:01:26Z</time>
      </trkpt>
      <trkpt lat="44.56091" lon="5.67906">
        <ele>903</ele>
        <time>2022-06-09T21:01:32Z</time>
      </trkpt>
      <trkpt lat="44.56131" lon="5.67924">
        <ele>908</ele>
        <time>2022-06-09T21:01:42Z</time>
      </trkpt>
      <trkpt lat="44.56139" lon="5.67921">
        <ele>910</ele>
        <time>2022-06-09T21:01:44Z</time>
      </trkpt>
      <trkpt lat="44.56142" lon="5.67925">
        <ele>910</ele>
        <time>2022-06-09T21:01:44Z</time>
      </trkpt>
      <trkpt lat="44.56153" lon="5.67926">
        <ele>913</ele>
        <time>2022-06-09T21:01:47Z</time>
      </trkpt>
      <trkpt lat="44.56165" lon="5.67935">
        <ele>915</ele>
        <time>2022-06-09T21:01:50Z</time>
      </trkpt>
      <trkpt lat="44.56171" lon="5.67936">
        <ele>916</ele>
        <time>2022-06-09T21:01:52Z</time>
      </trkpt>
      <trkpt lat="44.56177" lon="5.67933">
        <ele>919</ele>
        <time>2022-06-09T21:01:53Z</time>
      </trkpt>
      <trkpt lat="44.5618" lon="5.67926">
        <ele>920</ele>
        <time>2022-06-09T21:01:54Z</time>
      </trkpt>
      <trkpt lat="44.56176" lon="5.67917">
        <ele>919</ele>
        <time>2022-06-09T21:01:56Z</time>
      </trkpt>
      <trkpt lat="44.56156" lon="5.67896">
        <ele>920</ele>
        <time>2022-06-09T21:02:02Z</time>
      </trkpt>
      <trkpt lat="44.56152" lon="5.67887">
        <ele>921</ele>
        <time>2022-06-09T21:02:04Z</time>
      </trkpt>
      <trkpt lat="44.56136" lon="5.67867">
        <ele>923</ele>
        <time>2022-06-09T21:02:09Z</time>
      </trkpt>
      <trkpt lat="44.56123" lon="5.67846">
        <ele>926</ele>
        <time>2022-06-09T21:02:13Z</time>
      </trkpt>
      <trkpt lat="44.56108" lon="5.67831">
        <ele>927</ele>
        <time>2022-06-09T21:02:18Z</time>
      </trkpt>
      <trkpt lat="44.56109" lon="5.67833">
        <ele>926</ele>
        <time>2022-06-09T21:02:18Z</time>
      </trkpt>
      <trkpt lat="44.56103" lon="5.67822">
        <ele>928</ele>
        <time>2022-06-09T21:02:20Z</time>
      </trkpt>
      <trkpt lat="44.56095" lon="5.67818">
        <ele>927</ele>
        <time>2022-06-09T21:02:22Z</time>
      </trkpt>
      <trkpt lat="44.56091" lon="5.67811">
        <ele>928</ele>
        <time>2022-06-09T21:02:24Z</time>
      </trkpt>
      <trkpt lat="44.56085" lon="5.67808">
        <ele>928</ele>
        <time>2022-06-09T21:02:25Z</time>
      </trkpt>
      <trkpt lat="44.5608" lon="5.67796">
        <ele>930</ele>
        <time>2022-06-09T21:02:28Z</time>
      </trkpt>
      <trkpt lat="44.5604" lon="5.6776">
        <ele>931</ele>
        <time>2022-06-09T21:02:39Z</time>
      </trkpt>
      <trkpt lat="44.56033" lon="5.67748">
        <ele>933</ele>
        <time>2022-06-09T21:02:41Z</time>
      </trkpt>
      <trkpt lat="44.56014" lon="5.67729">
        <ele>931</ele>
        <time>2022-06-09T21:02:47Z</time>
      </trkpt>
      <trkpt lat="44.56002" lon="5.67708">
        <ele>932</ele>
        <time>2022-06-09T21:02:51Z</time>
      </trkpt>
      <trkpt lat="44.55982" lon="5.6769">
        <ele>930</ele>
        <time>2022-06-09T21:02:57Z</time>
      </trkpt>
      <trkpt lat="44.55979" lon="5.67681">
        <ele>931</ele>
        <time>2022-06-09T21:02:59Z</time>
      </trkpt>
      <trkpt lat="44.5598" lon="5.67671">
        <ele>933</ele>
        <time>2022-06-09T21:03:00Z</time>
      </trkpt>
      <trkpt lat="44.55987" lon="5.67662">
        <ele>935</ele>
        <time>2022-06-09T21:03:02Z</time>
      </trkpt>
      <trkpt lat="44.55994" lon="5.6766">
        <ele>937</ele>
        <time>2022-06-09T21:03:04Z</time>
      </trkpt>
      <trkpt lat="44.56012" lon="5.67662">
        <ele>941</ele>
        <time>2022-06-09T21:03:08Z</time>
      </trkpt>
      <trkpt lat="44.56015" lon="5.67665">
        <ele>942</ele>
        <time>2022-06-09T21:03:09Z</time>
      </trkpt>
      <trkpt lat="44.56038" lon="5.67673">
        <ele>945</ele>
        <time>2022-06-09T21:03:15Z</time>
      </trkpt>
      <trkpt lat="44.56061" lon="5.67694">
        <ele>946</ele>
        <time>2022-06-09T21:03:21Z</time>
      </trkpt>
      <trkpt lat="44.56099" lon="5.67708">
        <ele>951</ele>
        <time>2022-06-09T21:03:30Z</time>
      </trkpt>
      <trkpt lat="44.56117" lon="5.67712">
        <ele>952</ele>
        <time>2022-06-09T21:03:35Z</time>
      </trkpt>
      <trkpt lat="44.56129" lon="5.6772">
        <ele>954</ele>
        <time>2022-06-09T21:03:38Z</time>
      </trkpt>
      <trkpt lat="44.56143" lon="5.67723">
        <ele>955</ele>
        <time>2022-06-09T21:03:41Z</time>
      </trkpt>
      <trkpt lat="44.56166" lon="5.67736">
        <ele>959</ele>
        <time>2022-06-09T21:03:47Z</time>
      </trkpt>
      <trkpt lat="44.56205" lon="5.67751">
        <ele>960</ele>
        <time>2022-06-09T21:03:56Z</time>
      </trkpt>
      <trkpt lat="44.56252" lon="5.67787">
        <ele>961</ele>
        <time>2022-06-09T21:04:09Z</time>
      </trkpt>
      <trkpt lat="44.5626" lon="5.67799">
        <ele>961</ele>
        <time>2022-06-09T21:04:11Z</time>
      </trkpt>
      <trkpt lat="44.56289" lon="5.67824">
        <ele>966</ele>
        <time>2022-06-09T21:04:19Z</time>
      </trkpt>
      <trkpt lat="44.56319" lon="5.67855">
        <ele>972</ele>
        <time>2022-06-09T21:04:28Z</time>
      </trkpt>
      <trkpt lat="44.56358" lon="5.67905">
        <ele>974</ele>
        <time>2022-06-09T21:04:40Z</time>
      </trkpt>
      <trkpt lat="44.56391" lon="5.67964">
        <ele>982</ele>
        <time>2022-06-09T21:04:53Z</time>
      </trkpt>
      <trkpt lat="44.56396" lon="5.67969">
        <ele>983</ele>
        <time>2022-06-09T21:04:54Z</time>
      </trkpt>
      <trkpt lat="44.56402" lon="5.67971">
        <ele>984</ele>
        <time>2022-06-09T21:04:56Z</time>
      </trkpt>
      <trkpt lat="44.564" lon="5.67973">
        <ele>984</ele>
        <time>2022-06-09T21:04:56Z</time>
      </trkpt>
      <trkpt lat="44.56395" lon="5.67971">
        <ele>983</ele>
        <time>2022-06-09T21:04:58Z</time>
      </trkpt>
      <trkpt lat="44.56396" lon="5.67988">
        <ele>986</ele>
        <time>2022-06-09T21:05:00Z</time>
      </trkpt>
      <trkpt lat="44.56412" lon="5.68024">
        <ele>993</ele>
        <time>2022-06-09T21:05:07Z</time>
      </trkpt>
      <trkpt lat="44.56423" lon="5.68057">
        <ele>997</ele>
        <time>2022-06-09T21:05:14Z</time>
      </trkpt>
      <trkpt lat="44.56435" lon="5.68085">
        <ele>1000</ele>
        <time>2022-06-09T21:05:19Z</time>
      </trkpt>
      <trkpt lat="44.56445" lon="5.68101">
        <ele>1002</ele>
        <time>2022-06-09T21:05:23Z</time>
      </trkpt>
      <trkpt lat="44.5645" lon="5.68118">
        <ele>1004</ele>
        <time>2022-06-09T21:05:26Z</time>
      </trkpt>
      <trkpt lat="44.56457" lon="5.68129">
        <ele>1006</ele>
        <time>2022-06-09T21:05:28Z</time>
      </trkpt>
      <trkpt lat="44.5646" lon="5.68146">
        <ele>1009</ele>
        <time>2022-06-09T21:05:31Z</time>
      </trkpt>
      <trkpt lat="44.5647" lon="5.68161">
        <ele>1012</ele>
        <time>2022-06-09T21:05:34Z</time>
      </trkpt>
      <trkpt lat="44.56469" lon="5.68169">
        <ele>1014</ele>
        <time>2022-06-09T21:05:36Z</time>
      </trkpt>
      <trkpt lat="44.5648" lon="5.68178">
        <ele>1016</ele>
        <time>2022-06-09T21:05:39Z</time>
      </trkpt>
      <trkpt lat="44.5648" lon="5.68187">
        <ele>1018</ele>
        <time>2022-06-09T21:05:40Z</time>
      </trkpt>
      <trkpt lat="44.56484" lon="5.68188">
        <ele>1018</ele>
        <time>2022-06-09T21:05:41Z</time>
      </trkpt>
      <trkpt lat="44.56491" lon="5.68197">
        <ele>1020</ele>
        <time>2022-06-09T21:05:43Z</time>
      </trkpt>
      <trkpt lat="44.56494" lon="5.68206">
        <ele>1022</ele>
        <time>2022-06-09T21:05:45Z</time>
      </trkpt>
      <trkpt lat="44.56498" lon="5.6824">
        <ele>1030</ele>
        <time>2022-06-09T21:05:51Z</time>
      </trkpt>
      <trkpt lat="44.56502" lon="5.68246">
        <ele>1032</ele>
        <time>2022-06-09T21:05:52Z</time>
      </trkpt>
      <trkpt lat="44.56503" lon="5.68315">
        <ele>1044</ele>
        <time>2022-06-09T21:06:04Z</time>
      </trkpt>
      <trkpt lat="44.56506" lon="5.6832">
        <ele>1045</ele>
        <time>2022-06-09T21:06:05Z</time>
      </trkpt>
      <trkpt lat="44.56503" lon="5.68328">
        <ele>1046</ele>
        <time>2022-06-09T21:06:06Z</time>
      </trkpt>
      <trkpt lat="44.56502" lon="5.68347">
        <ele>1050</ele>
        <time>2022-06-09T21:06:09Z</time>
      </trkpt>
      <trkpt lat="44.56507" lon="5.68361">
        <ele>1052</ele>
        <time>2022-06-09T21:06:12Z</time>
      </trkpt>
      <trkpt lat="44.56503" lon="5.68377">
        <ele>1055</ele>
        <time>2022-06-09T21:06:15Z</time>
      </trkpt>
      <trkpt lat="44.56507" lon="5.68398">
        <ele>1059</ele>
        <time>2022-06-09T21:06:18Z</time>
      </trkpt>
      <trkpt lat="44.56507" lon="5.6844">
        <ele>1068</ele>
        <time>2022-06-09T21:06:25Z</time>
      </trkpt>
      <trkpt lat="44.5651" lon="5.68448">
        <ele>1070</ele>
        <time>2022-06-09T21:06:27Z</time>
      </trkpt>
      <trkpt lat="44.56501" lon="5.68473">
        <ele>1076</ele>
        <time>2022-06-09T21:06:32Z</time>
      </trkpt>
      <trkpt lat="44.56495" lon="5.68512">
        <ele>1083</ele>
        <time>2022-06-09T21:06:38Z</time>
      </trkpt>
      <trkpt lat="44.56487" lon="5.68528">
        <ele>1084</ele>
        <time>2022-06-09T21:06:41Z</time>
      </trkpt>
      <trkpt lat="44.56491" lon="5.68537">
        <ele>1087</ele>
        <time>2022-06-09T21:06:43Z</time>
      </trkpt>
      <trkpt lat="44.56481" lon="5.68557">
        <ele>1087</ele>
        <time>2022-06-09T21:06:47Z</time>
      </trkpt>
      <trkpt lat="44.56483" lon="5.68562">
        <ele>1089</ele>
        <time>2022-06-09T21:06:48Z</time>
      </trkpt>
      <trkpt lat="44.56481" lon="5.68579">
        <ele>1091</ele>
        <time>2022-06-09T21:06:51Z</time>
      </trkpt>
      <trkpt lat="44.56484" lon="5.68589">
        <ele>1094</ele>
        <time>2022-06-09T21:06:53Z</time>
      </trkpt>
      <trkpt lat="44.56485" lon="5.68634">
        <ele>1103</ele>
        <time>2022-06-09T21:07:00Z</time>
      </trkpt>
      <trkpt lat="44.56486" lon="5.68632">
        <ele>1103</ele>
        <time>2022-06-09T21:07:01Z</time>
      </trkpt>
      <trkpt lat="44.5648" lon="5.68622">
        <ele>1098</ele>
        <time>2022-06-09T21:07:03Z</time>
      </trkpt>
      <trkpt lat="44.56481" lon="5.6862">
        <ele>1098</ele>
        <time>2022-06-09T21:07:03Z</time>
      </trkpt>
      <trkpt lat="44.56484" lon="5.68637">
        <ele>1103</ele>
        <time>2022-06-09T21:07:06Z</time>
      </trkpt>
      <trkpt lat="44.56482" lon="5.68644">
        <ele>1103</ele>
        <time>2022-06-09T21:07:08Z</time>
      </trkpt>
      <trkpt lat="44.56484" lon="5.68672">
        <ele>1110</ele>
        <time>2022-06-09T21:07:12Z</time>
      </trkpt>
      <trkpt lat="44.56487" lon="5.68675">
        <ele>1113</ele>
        <time>2022-06-09T21:07:13Z</time>
      </trkpt>
      <trkpt lat="44.56488" lon="5.68691">
        <ele>1118</ele>
        <time>2022-06-09T21:07:16Z</time>
      </trkpt>
      <trkpt lat="44.56496" lon="5.68703">
        <ele>1124</ele>
        <time>2022-06-09T21:07:19Z</time>
      </trkpt>
      <trkpt lat="44.56493" lon="5.68709">
        <ele>1125</ele>
        <time>2022-06-09T21:07:20Z</time>
      </trkpt>
      <trkpt lat="44.5649" lon="5.68706">
        <ele>1123</ele>
        <time>2022-06-09T21:07:21Z</time>
      </trkpt>
      <trkpt lat="44.56488" lon="5.68707">
        <ele>1123</ele>
        <time>2022-06-09T21:07:21Z</time>
      </trkpt>
      <trkpt lat="44.56488" lon="5.68724">
        <ele>1128</ele>
        <time>2022-06-09T21:07:24Z</time>
      </trkpt>
      <trkpt lat="44.56476" lon="5.68745">
        <ele>1132</ele>
        <time>2022-06-09T21:07:28Z</time>
      </trkpt>
      <trkpt lat="44.56476" lon="5.6876">
        <ele>1138</ele>
        <time>2022-06-09T21:07:31Z</time>
      </trkpt>
      <trkpt lat="44.56474" lon="5.68764">
        <ele>1139</ele>
        <time>2022-06-09T21:07:32Z</time>
      </trkpt>
      <trkpt lat="44.56461" lon="5.6877">
        <ele>1138</ele>
        <time>2022-06-09T21:07:35Z</time>
      </trkpt>
      <trkpt lat="44.56438" lon="5.6881">
        <ele>1149</ele>
        <time>2022-06-09T21:07:43Z</time>
      </trkpt>
      <trkpt lat="44.56434" lon="5.6881">
        <ele>1148</ele>
        <time>2022-06-09T21:07:44Z</time>
      </trkpt>
      <trkpt lat="44.56432" lon="5.68833">
        <ele>1156</ele>
        <time>2022-06-09T21:07:48Z</time>
      </trkpt>
      <trkpt lat="44.56404" lon="5.68871">
        <ele>1164</ele>
        <time>2022-06-09T21:07:57Z</time>
      </trkpt>
      <trkpt lat="44.56401" lon="5.68887">
        <ele>1169</ele>
        <time>2022-06-09T21:08:00Z</time>
      </trkpt>
      <trkpt lat="44.56393" lon="5.68895">
        <ele>1170</ele>
        <time>2022-06-09T21:08:02Z</time>
      </trkpt>
      <trkpt lat="44.56386" lon="5.68914">
        <ele>1174</ele>
        <time>2022-06-09T21:08:06Z</time>
      </trkpt>
      <trkpt lat="44.56375" lon="5.68926">
        <ele>1176</ele>
        <time>2022-06-09T21:08:09Z</time>
      </trkpt>
      <trkpt lat="44.56367" lon="5.6894">
        <ele>1179</ele>
        <time>2022-06-09T21:08:12Z</time>
      </trkpt>
      <trkpt lat="44.56365" lon="5.68939">
        <ele>1178</ele>
        <time>2022-06-09T21:08:13Z</time>
      </trkpt>
      <trkpt lat="44.56363" lon="5.68959">
        <ele>1184</ele>
        <time>2022-06-09T21:08:16Z</time>
      </trkpt>
      <trkpt lat="44.56342" lon="5.69">
        <ele>1192</ele>
        <time>2022-06-09T21:08:24Z</time>
      </trkpt>
      <trkpt lat="44.56336" lon="5.69002">
        <ele>1191</ele>
        <time>2022-06-09T21:08:26Z</time>
      </trkpt>
      <trkpt lat="44.56343" lon="5.69">
        <ele>1192</ele>
        <time>2022-06-09T21:08:28Z</time>
      </trkpt>
      <trkpt lat="44.56332" lon="5.68994">
        <ele>1188</ele>
        <time>2022-06-09T21:08:30Z</time>
      </trkpt>
      <trkpt lat="44.56335" lon="5.68998">
        <ele>1190</ele>
        <time>2022-06-09T21:08:31Z</time>
      </trkpt>
      <trkpt lat="44.5633" lon="5.68996">
        <ele>1188</ele>
        <time>2022-06-09T21:08:32Z</time>
      </trkpt>
      <trkpt lat="44.56329" lon="5.68999">
        <ele>1189</ele>
        <time>2022-06-09T21:08:33Z</time>
      </trkpt>
      <trkpt lat="44.56328" lon="5.68997">
        <ele>1188</ele>
        <time>2022-06-09T21:08:33Z</time>
      </trkpt>
      <trkpt lat="44.56312" lon="5.69015">
        <ele>1190</ele>
        <time>2022-06-09T21:08:38Z</time>
      </trkpt>
      <trkpt lat="44.56309" lon="5.69022">
        <ele>1192</ele>
        <time>2022-06-09T21:08:40Z</time>
      </trkpt>
      <trkpt lat="44.56306" lon="5.69022">
        <ele>1191</ele>
        <time>2022-06-09T21:08:40Z</time>
      </trkpt>
      <trkpt lat="44.56298" lon="5.69031">
        <ele>1192</ele>
        <time>2022-06-09T21:08:43Z</time>
      </trkpt>
      <trkpt lat="44.56282" lon="5.69062">
        <ele>1197</ele>
        <time>2022-06-09T21:08:49Z</time>
      </trkpt>
      <trkpt lat="44.56268" lon="5.69081">
        <ele>1198</ele>
        <time>2022-06-09T21:08:54Z</time>
      </trkpt>
      <trkpt lat="44.56253" lon="5.69114">
        <ele>1204</ele>
        <time>2022-06-09T21:09:00Z</time>
      </trkpt>
      <trkpt lat="44.5624" lon="5.69129">
        <ele>1204</ele>
        <time>2022-06-09T21:09:04Z</time>
      </trkpt>
      <trkpt lat="44.56232" lon="5.69144">
        <ele>1205</ele>
        <time>2022-06-09T21:09:07Z</time>
      </trkpt>
      <trkpt lat="44.5622" lon="5.69184">
        <ele>1211</ele>
        <time>2022-06-09T21:09:14Z</time>
      </trkpt>
      <trkpt lat="44.56206" lon="5.69209">
        <ele>1213</ele>
        <time>2022-06-09T21:09:20Z</time>
      </trkpt>
      <trkpt lat="44.56181" lon="5.69239">
        <ele>1211</ele>
        <time>2022-06-09T21:09:27Z</time>
      </trkpt>
      <trkpt lat="44.56177" lon="5.6924">
        <ele>1209</ele>
        <time>2022-06-09T21:09:28Z</time>
      </trkpt>
      <trkpt lat="44.56168" lon="5.6925">
        <ele>1209</ele>
        <time>2022-06-09T21:09:31Z</time>
      </trkpt>
      <trkpt lat="44.56145" lon="5.69291">
        <ele>1213</ele>
        <time>2022-06-09T21:09:40Z</time>
      </trkpt>
      <trkpt lat="44.5611" lon="5.69334">
        <ele>1217</ele>
        <time>2022-06-09T21:09:51Z</time>
      </trkpt>
      <trkpt lat="44.56084" lon="5.69372">
        <ele>1221</ele>
        <time>2022-06-09T21:09:59Z</time>
      </trkpt>
      <trkpt lat="44.56073" lon="5.69383">
        <ele>1221</ele>
        <time>2022-06-09T21:10:02Z</time>
      </trkpt>
      <trkpt lat="44.56052" lon="5.69418">
        <ele>1227</ele>
        <time>2022-06-09T21:10:10Z</time>
      </trkpt>
      <trkpt lat="44.56037" lon="5.69433">
        <ele>1224</ele>
        <time>2022-06-09T21:10:14Z</time>
      </trkpt>
      <trkpt lat="44.56014" lon="5.69464">
        <ele>1223</ele>
        <time>2022-06-09T21:10:22Z</time>
      </trkpt>
      <trkpt lat="44.55985" lon="5.69486">
        <ele>1220</ele>
        <time>2022-06-09T21:10:30Z</time>
      </trkpt>
      <trkpt lat="44.5595" lon="5.69498">
        <ele>1216</ele>
        <time>2022-06-09T21:10:38Z</time>
      </trkpt>
      <trkpt lat="44.55934" lon="5.69531">
        <ele>1217</ele>
        <time>2022-06-09T21:10:45Z</time>
      </trkpt>
      <trkpt lat="44.55924" lon="5.69541">
        <ele>1217</ele>
        <time>2022-06-09T21:10:47Z</time>
      </trkpt>
      <trkpt lat="44.55909" lon="5.69562">
        <ele>1220</ele>
        <time>2022-06-09T21:10:52Z</time>
      </trkpt>
      <trkpt lat="44.55903" lon="5.69567">
        <ele>1221</ele>
        <time>2022-06-09T21:10:54Z</time>
      </trkpt>
      <trkpt lat="44.55899" lon="5.69567">
        <ele>1222</ele>
        <time>2022-06-09T21:10:55Z</time>
      </trkpt>
      <trkpt lat="44.55886" lon="5.69564">
        <ele>1222</ele>
        <time>2022-06-09T21:10:58Z</time>
      </trkpt>
      <trkpt lat="44.55877" lon="5.69558">
        <ele>1221</ele>
        <time>2022-06-09T21:11:00Z</time>
      </trkpt>
      <trkpt lat="44.55863" lon="5.69561">
        <ele>1223</ele>
        <time>2022-06-09T21:11:04Z</time>
      </trkpt>
      <trkpt lat="44.55855" lon="5.69549">
        <ele>1219</ele>
        <time>2022-06-09T21:11:06Z</time>
      </trkpt>
      <trkpt lat="44.5585" lon="5.69549">
        <ele>1219</ele>
        <time>2022-06-09T21:11:08Z</time>
      </trkpt>
      <trkpt lat="44.5584" lon="5.6956">
        <ele>1224</ele>
        <time>2022-06-09T21:11:11Z</time>
      </trkpt>
      <trkpt lat="44.55837" lon="5.69572">
        <ele>1228</ele>
        <time>2022-06-09T21:11:13Z</time>
      </trkpt>
      <trkpt lat="44.55829" lon="5.69569">
        <ele>1228</ele>
        <time>2022-06-09T21:11:15Z</time>
      </trkpt>
      <trkpt lat="44.55826" lon="5.6957">
        <ele>1229</ele>
        <time>2022-06-09T21:11:15Z</time>
      </trkpt>
      <trkpt lat="44.55824" lon="5.69581">
        <ele>1234</ele>
        <time>2022-06-09T21:11:17Z</time>
      </trkpt>
      <trkpt lat="44.55813" lon="5.69592">
        <ele>1239</ele>
        <time>2022-06-09T21:11:20Z</time>
      </trkpt>
      <trkpt lat="44.5581" lon="5.6959">
        <ele>1239</ele>
        <time>2022-06-09T21:11:21Z</time>
      </trkpt>
      <trkpt lat="44.55792" lon="5.69609">
        <ele>1247</ele>
        <time>2022-06-09T21:11:26Z</time>
      </trkpt>
      <trkpt lat="44.5579" lon="5.69608">
        <ele>1247</ele>
        <time>2022-06-09T21:11:27Z</time>
      </trkpt>
      <trkpt lat="44.55782" lon="5.69613">
        <ele>1250</ele>
        <time>2022-06-09T21:11:29Z</time>
      </trkpt>
      <trkpt lat="44.5578" lon="5.6961">
        <ele>1250</ele>
        <time>2022-06-09T21:11:30Z</time>
      </trkpt>
      <trkpt lat="44.55758" lon="5.69626">
        <ele>1260</ele>
        <time>2022-06-09T21:11:35Z</time>
      </trkpt>
      <trkpt lat="44.55756" lon="5.69625">
        <ele>1260</ele>
        <time>2022-06-09T21:11:36Z</time>
      </trkpt>
      <trkpt lat="44.55726" lon="5.69651">
        <ele>1272</ele>
        <time>2022-06-09T21:11:44Z</time>
      </trkpt>
      <trkpt lat="44.55726" lon="5.69654">
        <ele>1273</ele>
        <time>2022-06-09T21:11:45Z</time>
      </trkpt>
      <trkpt lat="44.55703" lon="5.69669">
        <ele>1282</ele>
        <time>2022-06-09T21:11:51Z</time>
      </trkpt>
      <trkpt lat="44.557" lon="5.69667">
        <ele>1282</ele>
        <time>2022-06-09T21:11:51Z</time>
      </trkpt>
      <trkpt lat="44.55688" lon="5.69676">
        <ele>1287</ele>
        <time>2022-06-09T21:11:54Z</time>
      </trkpt>
      <trkpt lat="44.55687" lon="5.69674">
        <ele>1287</ele>
        <time>2022-06-09T21:11:55Z</time>
      </trkpt>
      <trkpt lat="44.55679" lon="5.69675">
        <ele>1289</ele>
        <time>2022-06-09T21:11:57Z</time>
      </trkpt>
      <trkpt lat="44.55682" lon="5.69671">
        <ele>1287</ele>
        <time>2022-06-09T21:11:58Z</time>
      </trkpt>
      <trkpt lat="44.55675" lon="5.6967">
        <ele>1288</ele>
        <time>2022-06-09T21:11:59Z</time>
      </trkpt>
      <trkpt lat="44.55671" lon="5.69678">
        <ele>1291</ele>
        <time>2022-06-09T21:12:01Z</time>
      </trkpt>
      <trkpt lat="44.55671" lon="5.69688">
        <ele>1295</ele>
        <time>2022-06-09T21:12:03Z</time>
      </trkpt>
      <trkpt lat="44.55664" lon="5.69695">
        <ele>1298</ele>
        <time>2022-06-09T21:12:05Z</time>
      </trkpt>
      <trkpt lat="44.55654" lon="5.69713">
        <ele>1303</ele>
        <time>2022-06-09T21:12:08Z</time>
      </trkpt>
      <trkpt lat="44.55637" lon="5.69726">
        <ele>1308</ele>
        <time>2022-06-09T21:12:13Z</time>
      </trkpt>
      <trkpt lat="44.55636" lon="5.6973">
        <ele>1310</ele>
        <time>2022-06-09T21:12:14Z</time>
      </trkpt>
      <trkpt lat="44.55632" lon="5.69729">
        <ele>1309</ele>
        <time>2022-06-09T21:12:15Z</time>
      </trkpt>
      <trkpt lat="44.55603" lon="5.69751">
        <ele>1324</ele>
        <time>2022-06-09T21:12:22Z</time>
      </trkpt>
      <trkpt lat="44.55597" lon="5.69759">
        <ele>1328</ele>
        <time>2022-06-09T21:12:24Z</time>
      </trkpt>
      <trkpt lat="44.55586" lon="5.69764">
        <ele>1331</ele>
        <time>2022-06-09T21:12:27Z</time>
      </trkpt>
      <trkpt lat="44.55578" lon="5.69786">
        <ele>1338</ele>
        <time>2022-06-09T21:12:31Z</time>
      </trkpt>
      <trkpt lat="44.55578" lon="5.69796">
        <ele>1342</ele>
        <time>2022-06-09T21:12:33Z</time>
      </trkpt>
      <trkpt lat="44.55571" lon="5.698">
        <ele>1343</ele>
        <time>2022-06-09T21:12:35Z</time>
      </trkpt>
      <trkpt lat="44.55572" lon="5.69811">
        <ele>1348</ele>
        <time>2022-06-09T21:12:36Z</time>
      </trkpt>
      <trkpt lat="44.5557" lon="5.69811">
        <ele>1348</ele>
        <time>2022-06-09T21:12:37Z</time>
      </trkpt>
      <trkpt lat="44.55568" lon="5.69818">
        <ele>1351</ele>
        <time>2022-06-09T21:12:38Z</time>
      </trkpt>
      <trkpt lat="44.55563" lon="5.69821">
        <ele>1353</ele>
        <time>2022-06-09T21:12:39Z</time>
      </trkpt>
      <trkpt lat="44.55562" lon="5.69827">
        <ele>1356</ele>
        <time>2022-06-09T21:12:40Z</time>
      </trkpt>
      <trkpt lat="44.55557" lon="5.69833">
        <ele>1359</ele>
        <time>2022-06-09T21:12:42Z</time>
      </trkpt>
      <trkpt lat="44.55559" lon="5.69839">
        <ele>1361</ele>
        <time>2022-06-09T21:12:43Z</time>
      </trkpt>
      <trkpt lat="44.55555" lon="5.69839">
        <ele>1362</ele>
        <time>2022-06-09T21:12:44Z</time>
      </trkpt>
      <trkpt lat="44.55553" lon="5.69835">
        <ele>1361</ele>
        <time>2022-06-09T21:12:45Z</time>
      </trkpt>
      <trkpt lat="44.55553" lon="5.6985">
        <ele>1366</ele>
        <time>2022-06-09T21:12:47Z</time>
      </trkpt>
      <trkpt lat="44.5555" lon="5.6985">
        <ele>1367</ele>
        <time>2022-06-09T21:12:48Z</time>
      </trkpt>
      <trkpt lat="44.55547" lon="5.69856">
        <ele>1369</ele>
        <time>2022-06-09T21:12:49Z</time>
      </trkpt>
      <trkpt lat="44.55542" lon="5.69873">
        <ele>1377</ele>
        <time>2022-06-09T21:12:52Z</time>
      </trkpt>
      <trkpt lat="44.55536" lon="5.69871">
        <ele>1378</ele>
        <time>2022-06-09T21:12:54Z</time>
      </trkpt>
      <trkpt lat="44.55535" lon="5.69876">
        <ele>1380</ele>
        <time>2022-06-09T21:12:55Z</time>
      </trkpt>
      <trkpt lat="44.55519" lon="5.69891">
        <ele>1390</ele>
        <time>2022-06-09T21:12:59Z</time>
      </trkpt>
      <trkpt lat="44.55519" lon="5.69897">
        <ele>1393</ele>
        <time>2022-06-09T21:13:00Z</time>
      </trkpt>
      <trkpt lat="44.55517" lon="5.69895">
        <ele>1393</ele>
        <time>2022-06-09T21:13:01Z</time>
      </trkpt>
      <trkpt lat="44.55508" lon="5.69903">
        <ele>1399</ele>
        <time>2022-06-09T21:13:03Z</time>
      </trkpt>
      <trkpt lat="44.555" lon="5.69918">
        <ele>1409</ele>
        <time>2022-06-09T21:13:06Z</time>
      </trkpt>
      <trkpt lat="44.55498" lon="5.69916">
        <ele>1408</ele>
        <time>2022-06-09T21:13:07Z</time>
      </trkpt>
      <trkpt lat="44.55486" lon="5.69936">
        <ele>1414</ele>
        <time>2022-06-09T21:13:11Z</time>
      </trkpt>
      <trkpt lat="44.55483" lon="5.69934">
        <ele>1413</ele>
        <time>2022-06-09T21:13:12Z</time>
      </trkpt>
      <trkpt lat="44.5548" lon="5.69937">
        <ele>1414</ele>
        <time>2022-06-09T21:13:13Z</time>
      </trkpt>
      <trkpt lat="44.55474" lon="5.6996">
        <ele>1422</ele>
        <time>2022-06-09T21:13:17Z</time>
      </trkpt>
      <trkpt lat="44.5548" lon="5.69971">
        <ele>1427</ele>
        <time>2022-06-09T21:13:19Z</time>
      </trkpt>
      <trkpt lat="44.55463" lon="5.69995">
        <ele>1438</ele>
        <time>2022-06-09T21:13:25Z</time>
      </trkpt>
      <trkpt lat="44.55479" lon="5.70037">
        <ele>1448</ele>
        <time>2022-06-09T21:13:33Z</time>
      </trkpt>
      <trkpt lat="44.55417" lon="5.70094">
        <ele>1480</ele>
        <time>2022-06-09T21:13:50Z</time>
      </trkpt>
      <trkpt lat="44.55364" lon="5.70099">
        <ele>1492</ele>
        <time>2022-06-09T21:14:02Z</time>
      </trkpt>
      <trkpt lat="44.55357" lon="5.70105">
        <ele>1493</ele>
        <time>2022-06-09T21:14:04Z</time>
      </trkpt>
      <trkpt lat="44.55349" lon="5.70108">
        <ele>1495</ele>
        <time>2022-06-09T21:14:06Z</time>
      </trkpt>
      <trkpt lat="44.55343" lon="5.70115">
        <ele>1497</ele>
        <time>2022-06-09T21:14:08Z</time>
      </trkpt>
      <trkpt lat="44.55331" lon="5.70113">
        <ele>1500</ele>
        <time>2022-06-09T21:14:11Z</time>
      </trkpt>
      <trkpt lat="44.55302" lon="5.70118">
        <ele>1504</ele>
        <time>2022-06-09T21:14:18Z</time>
      </trkpt>
      <trkpt lat="44.55301" lon="5.70123">
        <ele>1505</ele>
        <time>2022-06-09T21:14:19Z</time>
      </trkpt>
      <trkpt lat="44.55309" lon="5.70114">
        <ele>1502</ele>
        <time>2022-06-09T21:14:21Z</time>
      </trkpt>
      <trkpt lat="44.55308" lon="5.70109">
        <ele>1502</ele>
        <time>2022-06-09T21:14:22Z</time>
      </trkpt>
      <trkpt lat="44.55305" lon="5.70116">
        <ele>1503</ele>
        <time>2022-06-09T21:14:23Z</time>
      </trkpt>
      <trkpt lat="44.55287" lon="5.70123">
        <ele>1506</ele>
        <time>2022-06-09T21:14:28Z</time>
      </trkpt>
      <trkpt lat="44.55285" lon="5.70121">
        <ele>1506</ele>
        <time>2022-06-09T21:14:28Z</time>
      </trkpt>
      <trkpt lat="44.55284" lon="5.70127">
        <ele>1507</ele>
        <time>2022-06-09T21:14:29Z</time>
      </trkpt>
      <trkpt lat="44.55271" lon="5.7013">
        <ele>1510</ele>
        <time>2022-06-09T21:14:32Z</time>
      </trkpt>
      <trkpt lat="44.55246" lon="5.70142">
        <ele>1516</ele>
        <time>2022-06-09T21:14:38Z</time>
      </trkpt>
      <trkpt lat="44.55235" lon="5.7015">
        <ele>1519</ele>
        <time>2022-06-09T21:14:41Z</time>
      </trkpt>
      <trkpt lat="44.55194" lon="5.70165">
        <ele>1529</ele>
        <time>2022-06-09T21:14:51Z</time>
      </trkpt>
      <trkpt lat="44.55171" lon="5.70178">
        <ele>1534</ele>
        <time>2022-06-09T21:14:57Z</time>
      </trkpt>
      <trkpt lat="44.5511" lon="5.70197">
        <ele>1535</ele>
        <time>2022-06-09T21:15:12Z</time>
      </trkpt>
      <trkpt lat="44.55104" lon="5.70195">
        <ele>1535</ele>
        <time>2022-06-09T21:15:13Z</time>
      </trkpt>
      <trkpt lat="44.55081" lon="5.70208">
        <ele>1537</ele>
        <time>2022-06-09T21:15:19Z</time>
      </trkpt>
      <trkpt lat="44.55078" lon="5.70206">
        <ele>1536</ele>
        <time>2022-06-09T21:15:20Z</time>
      </trkpt>
      <trkpt lat="44.55063" lon="5.70209">
        <ele>1536</ele>
        <time>2022-06-09T21:15:23Z</time>
      </trkpt>
      <trkpt lat="44.55028" lon="5.7022">
        <ele>1536</ele>
        <time>2022-06-09T21:15:32Z</time>
      </trkpt>
      <trkpt lat="44.54885" lon="5.70286">
        <ele>1534</ele>
        <time>2022-06-09T21:16:07Z</time>
      </trkpt>
      <trkpt lat="44.54865" lon="5.70301">
        <ele>1535</ele>
        <time>2022-06-09T21:16:12Z</time>
      </trkpt>
      <trkpt lat="44.54852" lon="5.70307">
        <ele>1535</ele>
        <time>2022-06-09T21:16:15Z</time>
      </trkpt>
      <trkpt lat="44.54814" lon="5.7034">
        <ele>1538</ele>
        <time>2022-06-09T21:16:26Z</time>
      </trkpt>
      <trkpt lat="44.54803" lon="5.70347">
        <ele>1537</ele>
        <time>2022-06-09T21:16:28Z</time>
      </trkpt>
      <trkpt lat="44.54793" lon="5.70359">
        <ele>1538</ele>
        <time>2022-06-09T21:16:32Z</time>
      </trkpt>
      <trkpt lat="44.5477" lon="5.70378">
        <ele>1541</ele>
        <time>2022-06-09T21:16:38Z</time>
      </trkpt>
      <trkpt lat="44.54747" lon="5.70402">
        <ele>1547</ele>
        <time>2022-06-09T21:16:44Z</time>
      </trkpt>
      <trkpt lat="44.54751" lon="5.70397">
        <ele>1546</ele>
        <time>2022-06-09T21:16:46Z</time>
      </trkpt>
      <trkpt lat="44.5475" lon="5.70395">
        <ele>1546</ele>
        <time>2022-06-09T21:16:46Z</time>
      </trkpt>
      <trkpt lat="44.5475" lon="5.70401">
        <ele>1548</ele>
        <time>2022-06-09T21:16:47Z</time>
      </trkpt>
      <trkpt lat="44.54737" lon="5.70412">
        <ele>1548</ele>
        <time>2022-06-09T21:16:51Z</time>
      </trkpt>
      <trkpt lat="44.54734" lon="5.70418">
        <ele>1549</ele>
        <time>2022-06-09T21:16:52Z</time>
      </trkpt>
      <trkpt lat="44.54719" lon="5.70433">
        <ele>1547</ele>
        <time>2022-06-09T21:16:56Z</time>
      </trkpt>
      <trkpt lat="44.54641" lon="5.705">
        <ele>1550</ele>
        <time>2022-06-09T21:17:18Z</time>
      </trkpt>
      <trkpt lat="44.54604" lon="5.70537">
        <ele>1546</ele>
        <time>2022-06-09T21:17:28Z</time>
      </trkpt>
      <trkpt lat="44.54573" lon="5.70563">
        <ele>1546</ele>
        <time>2022-06-09T21:17:37Z</time>
      </trkpt>
      <trkpt lat="44.54536" lon="5.70601">
        <ele>1545</ele>
        <time>2022-06-09T21:17:47Z</time>
      </trkpt>
      <trkpt lat="44.54512" lon="5.70632">
        <ele>1548</ele>
        <time>2022-06-09T21:17:55Z</time>
      </trkpt>
      <trkpt lat="44.54503" lon="5.70639">
        <ele>1549</ele>
        <time>2022-06-09T21:17:57Z</time>
      </trkpt>
      <trkpt lat="44.54499" lon="5.70636">
        <ele>1548</ele>
        <time>2022-06-09T21:17:58Z</time>
      </trkpt>
      <trkpt lat="44.54506" lon="5.70637">
        <ele>1549</ele>
        <time>2022-06-09T21:18:00Z</time>
      </trkpt>
      <trkpt lat="44.5443" lon="5.70716">
        <ele>1543</ele>
        <time>2022-06-09T21:18:22Z</time>
      </trkpt>
      <trkpt lat="44.54368" lon="5.70802">
        <ele>1537</ele>
        <time>2022-06-09T21:18:42Z</time>
      </trkpt>
      <trkpt lat="44.54362" lon="5.70823">
        <ele>1540</ele>
        <time>2022-06-09T21:18:46Z</time>
      </trkpt>
      <trkpt lat="44.54357" lon="5.70876">
        <ele>1543</ele>
        <time>2022-06-09T21:18:55Z</time>
      </trkpt>
      <trkpt lat="44.54347" lon="5.70901">
        <ele>1545</ele>
        <time>2022-06-09T21:19:00Z</time>
      </trkpt>
      <trkpt lat="44.54315" lon="5.70955">
        <ele>1546</ele>
        <time>2022-06-09T21:19:12Z</time>
      </trkpt>
      <trkpt lat="44.54294" lon="5.70981">
        <ele>1547</ele>
        <time>2022-06-09T21:19:18Z</time>
      </trkpt>
      <trkpt lat="44.54286" lon="5.70986">
        <ele>1549</ele>
        <time>2022-06-09T21:19:20Z</time>
      </trkpt>
      <trkpt lat="44.54204" lon="5.71063">
        <ele>1539</ele>
        <time>2022-06-09T21:19:43Z</time>
      </trkpt>
      <trkpt lat="44.54195" lon="5.71074">
        <ele>1538</ele>
        <time>2022-06-09T21:19:46Z</time>
      </trkpt>
      <trkpt lat="44.5418" lon="5.71105">
        <ele>1537</ele>
        <time>2022-06-09T21:19:52Z</time>
      </trkpt>
      <trkpt lat="44.54125" lon="5.71242">
        <ele>1533</ele>
        <time>2022-06-09T21:20:18Z</time>
      </trkpt>
      <trkpt lat="44.5412" lon="5.71266">
        <ele>1534</ele>
        <time>2022-06-09T21:20:23Z</time>
      </trkpt>
      <trkpt lat="44.541" lon="5.71321">
        <ele>1535</ele>
        <time>2022-06-09T21:20:33Z</time>
      </trkpt>
      <trkpt lat="44.54102" lon="5.71321">
        <ele>1535</ele>
        <time>2022-06-09T21:20:33Z</time>
      </trkpt>
      <trkpt lat="44.54103" lon="5.71317">
        <ele>1535</ele>
        <time>2022-06-09T21:20:34Z</time>
      </trkpt>
      <trkpt lat="44.54101" lon="5.71314">
        <ele>1534</ele>
        <time>2022-06-09T21:20:35Z</time>
      </trkpt>
      <trkpt lat="44.54095" lon="5.71353">
        <ele>1536</ele>
        <time>2022-06-09T21:20:41Z</time>
      </trkpt>
      <trkpt lat="44.54087" lon="5.71382">
        <ele>1538</ele>
        <time>2022-06-09T21:20:47Z</time>
      </trkpt>
      <trkpt lat="44.54087" lon="5.71378">
        <ele>1538</ele>
        <time>2022-06-09T21:20:47Z</time>
      </trkpt>
      <trkpt lat="44.5408" lon="5.71414">
        <ele>1540</ele>
        <time>2022-06-09T21:20:53Z</time>
      </trkpt>
      <trkpt lat="44.54069" lon="5.71512">
        <ele>1530</ele>
        <time>2022-06-09T21:21:10Z</time>
      </trkpt>
      <trkpt lat="44.54059" lon="5.71549">
        <ele>1528</ele>
        <time>2022-06-09T21:21:16Z</time>
      </trkpt>
      <trkpt lat="44.5405" lon="5.71575">
        <ele>1528</ele>
        <time>2022-06-09T21:21:21Z</time>
      </trkpt>
      <trkpt lat="44.54021" lon="5.71637">
        <ele>1526</ele>
        <time>2022-06-09T21:21:34Z</time>
      </trkpt>
      <trkpt lat="44.54015" lon="5.71658">
        <ele>1526</ele>
        <time>2022-06-09T21:21:37Z</time>
      </trkpt>
      <trkpt lat="44.54001" lon="5.7169">
        <ele>1525</ele>
        <time>2022-06-09T21:21:44Z</time>
      </trkpt>
      <trkpt lat="44.53945" lon="5.71851">
        <ele>1504</ele>
        <time>2022-06-09T21:22:13Z</time>
      </trkpt>
      <trkpt lat="44.53935" lon="5.71895">
        <ele>1502</ele>
        <time>2022-06-09T21:22:21Z</time>
      </trkpt>
      <trkpt lat="44.53932" lon="5.719">
        <ele>1502</ele>
        <time>2022-06-09T21:22:22Z</time>
      </trkpt>
      <trkpt lat="44.53932" lon="5.71896">
        <ele>1502</ele>
        <time>2022-06-09T21:22:23Z</time>
      </trkpt>
      <trkpt lat="44.53925" lon="5.71948">
        <ele>1500</ele>
        <time>2022-06-09T21:22:32Z</time>
      </trkpt>
      <trkpt lat="44.53909" lon="5.72031">
        <ele>1496</ele>
        <time>2022-06-09T21:22:46Z</time>
      </trkpt>
      <trkpt lat="44.53913" lon="5.72079">
        <ele>1498</ele>
        <time>2022-06-09T21:22:54Z</time>
      </trkpt>
      <trkpt lat="44.53926" lon="5.72136">
        <ele>1493</ele>
        <time>2022-06-09T21:23:04Z</time>
      </trkpt>
      <trkpt lat="44.53925" lon="5.72166">
        <ele>1491</ele>
        <time>2022-06-09T21:23:09Z</time>
      </trkpt>
      <trkpt lat="44.5393" lon="5.7218">
        <ele>1489</ele>
        <time>2022-06-09T21:23:12Z</time>
      </trkpt>
      <trkpt lat="44.53932" lon="5.72204">
        <ele>1487</ele>
        <time>2022-06-09T21:23:16Z</time>
      </trkpt>
      <trkpt lat="44.53934" lon="5.72265">
        <ele>1482</ele>
        <time>2022-06-09T21:23:26Z</time>
      </trkpt>
      <trkpt lat="44.53929" lon="5.72339">
        <ele>1475</ele>
        <time>2022-06-09T21:23:38Z</time>
      </trkpt>
      <trkpt lat="44.53931" lon="5.72363">
        <ele>1472</ele>
        <time>2022-06-09T21:23:42Z</time>
      </trkpt>
      <trkpt lat="44.53945" lon="5.72442">
        <ele>1462</ele>
        <time>2022-06-09T21:23:56Z</time>
      </trkpt>
      <trkpt lat="44.53947" lon="5.72542">
        <ele>1448</ele>
        <time>2022-06-09T21:24:12Z</time>
      </trkpt>
      <trkpt lat="44.53945" lon="5.72584">
        <ele>1441</ele>
        <time>2022-06-09T21:24:19Z</time>
      </trkpt>
      <trkpt lat="44.5395" lon="5.72602">
        <ele>1438</ele>
        <time>2022-06-09T21:24:23Z</time>
      </trkpt>
      <trkpt lat="44.53949" lon="5.72612">
        <ele>1436</ele>
        <time>2022-06-09T21:24:24Z</time>
      </trkpt>
      <trkpt lat="44.5395" lon="5.72615">
        <ele>1436</ele>
        <time>2022-06-09T21:24:25Z</time>
      </trkpt>
      <trkpt lat="44.53952" lon="5.72606">
        <ele>1438</ele>
        <time>2022-06-09T21:24:26Z</time>
      </trkpt>
      <trkpt lat="44.5395" lon="5.72606">
        <ele>1437</ele>
        <time>2022-06-09T21:24:27Z</time>
      </trkpt>
      <trkpt lat="44.53956" lon="5.72596">
        <ele>1440</ele>
        <time>2022-06-09T21:24:29Z</time>
      </trkpt>
      <trkpt lat="44.53962" lon="5.72571">
        <ele>1445</ele>
        <time>2022-06-09T21:24:33Z</time>
      </trkpt>
      <trkpt lat="44.53965" lon="5.72545">
        <ele>1449</ele>
        <time>2022-06-09T21:24:38Z</time>
      </trkpt>
      <trkpt lat="44.53972" lon="5.72514">
        <ele>1453</ele>
        <time>2022-06-09T21:24:43Z</time>
      </trkpt>
      <trkpt lat="44.53982" lon="5.72492">
        <ele>1455</ele>
        <time>2022-06-09T21:24:48Z</time>
      </trkpt>
      <trkpt lat="44.53996" lon="5.72444">
        <ele>1458</ele>
        <time>2022-06-09T21:24:56Z</time>
      </trkpt>
      <trkpt lat="44.54001" lon="5.72402">
        <ele>1459</ele>
        <time>2022-06-09T21:25:03Z</time>
      </trkpt>
      <trkpt lat="44.54025" lon="5.72343">
        <ele>1451</ele>
        <time>2022-06-09T21:25:15Z</time>
      </trkpt>
      <trkpt lat="44.54027" lon="5.72307">
        <ele>1452</ele>
        <time>2022-06-09T21:25:21Z</time>
      </trkpt>
      <trkpt lat="44.5403" lon="5.72303">
        <ele>1451</ele>
        <time>2022-06-09T21:25:22Z</time>
      </trkpt>
      <trkpt lat="44.54033" lon="5.72307">
        <ele>1450</ele>
        <time>2022-06-09T21:25:23Z</time>
      </trkpt>
      <trkpt lat="44.54034" lon="5.72317">
        <ele>1449</ele>
        <time>2022-06-09T21:25:24Z</time>
      </trkpt>
      <trkpt lat="44.54037" lon="5.72319">
        <ele>1448</ele>
        <time>2022-06-09T21:25:25Z</time>
      </trkpt>
      <trkpt lat="44.54038" lon="5.72374">
        <ele>1446</ele>
        <time>2022-06-09T21:25:34Z</time>
      </trkpt>
      <trkpt lat="44.54043" lon="5.7239">
        <ele>1443</ele>
        <time>2022-06-09T21:25:37Z</time>
      </trkpt>
      <trkpt lat="44.54053" lon="5.7241">
        <ele>1438</ele>
        <time>2022-06-09T21:25:41Z</time>
      </trkpt>
      <trkpt lat="44.54055" lon="5.72425">
        <ele>1436</ele>
        <time>2022-06-09T21:25:44Z</time>
      </trkpt>
      <trkpt lat="44.54045" lon="5.72476">
        <ele>1438</ele>
        <time>2022-06-09T21:25:53Z</time>
      </trkpt>
      <trkpt lat="44.54065" lon="5.72618">
        <ele>1426</ele>
        <time>2022-06-09T21:26:17Z</time>
      </trkpt>
      <trkpt lat="44.54076" lon="5.72673">
        <ele>1420</ele>
        <time>2022-06-09T21:26:26Z</time>
      </trkpt>
      <trkpt lat="44.54092" lon="5.72732">
        <ele>1414</ele>
        <time>2022-06-09T21:26:37Z</time>
      </trkpt>
      <trkpt lat="44.54115" lon="5.72841">
        <ele>1405</ele>
        <time>2022-06-09T21:26:56Z</time>
      </trkpt>
      <trkpt lat="44.54124" lon="5.72862">
        <ele>1402</ele>
        <time>2022-06-09T21:27:00Z</time>
      </trkpt>
      <trkpt lat="44.54142" lon="5.7288">
        <ele>1398</ele>
        <time>2022-06-09T21:27:05Z</time>
      </trkpt>
      <trkpt lat="44.54147" lon="5.72893">
        <ele>1397</ele>
        <time>2022-06-09T21:27:07Z</time>
      </trkpt>
      <trkpt lat="44.54147" lon="5.72915">
        <ele>1397</ele>
        <time>2022-06-09T21:27:11Z</time>
      </trkpt>
      <trkpt lat="44.54151" lon="5.72941">
        <ele>1396</ele>
        <time>2022-06-09T21:27:15Z</time>
      </trkpt>
      <trkpt lat="44.54158" lon="5.72956">
        <ele>1394</ele>
        <time>2022-06-09T21:27:18Z</time>
      </trkpt>
      <trkpt lat="44.54178" lon="5.72983">
        <ele>1390</ele>
        <time>2022-06-09T21:27:25Z</time>
      </trkpt>
      <trkpt lat="44.5418" lon="5.7299">
        <ele>1389</ele>
        <time>2022-06-09T21:27:26Z</time>
      </trkpt>
      <trkpt lat="44.5418" lon="5.73058">
        <ele>1384</ele>
        <time>2022-06-09T21:27:37Z</time>
      </trkpt>
      <trkpt lat="44.54174" lon="5.73084">
        <ele>1384</ele>
        <time>2022-06-09T21:27:42Z</time>
      </trkpt>
      <trkpt lat="44.54165" lon="5.731">
        <ele>1383</ele>
        <time>2022-06-09T21:27:45Z</time>
      </trkpt>
      <trkpt lat="44.54142" lon="5.7312">
        <ele>1378</ele>
        <time>2022-06-09T21:27:52Z</time>
      </trkpt>
      <trkpt lat="44.54129" lon="5.73123">
        <ele>1377</ele>
        <time>2022-06-09T21:27:55Z</time>
      </trkpt>
      <trkpt lat="44.54111" lon="5.73119">
        <ele>1376</ele>
        <time>2022-06-09T21:27:59Z</time>
      </trkpt>
      <trkpt lat="44.54107" lon="5.73121">
        <ele>1376</ele>
        <time>2022-06-09T21:28:00Z</time>
      </trkpt>
      <trkpt lat="44.54106" lon="5.73129">
        <ele>1374</ele>
        <time>2022-06-09T21:28:01Z</time>
      </trkpt>
      <trkpt lat="44.54117" lon="5.73142">
        <ele>1372</ele>
        <time>2022-06-09T21:28:05Z</time>
      </trkpt>
      <trkpt lat="44.54138" lon="5.73158">
        <ele>1371</ele>
        <time>2022-06-09T21:28:10Z</time>
      </trkpt>
      <trkpt lat="44.54173" lon="5.73197">
        <ele>1370</ele>
        <time>2022-06-09T21:28:21Z</time>
      </trkpt>
      <trkpt lat="44.54202" lon="5.73248">
        <ele>1363</ele>
        <time>2022-06-09T21:28:32Z</time>
      </trkpt>
      <trkpt lat="44.54204" lon="5.73257">
        <ele>1363</ele>
        <time>2022-06-09T21:28:33Z</time>
      </trkpt>
      <trkpt lat="44.54201" lon="5.73287">
        <ele>1365</ele>
        <time>2022-06-09T21:28:38Z</time>
      </trkpt>
      <trkpt lat="44.54202" lon="5.73317">
        <ele>1366</ele>
        <time>2022-06-09T21:28:43Z</time>
      </trkpt>
      <trkpt lat="44.54196" lon="5.73348">
        <ele>1370</ele>
        <time>2022-06-09T21:28:49Z</time>
      </trkpt>
      <trkpt lat="44.54196" lon="5.73363">
        <ele>1372</ele>
        <time>2022-06-09T21:28:51Z</time>
      </trkpt>
      <trkpt lat="44.54191" lon="5.73372">
        <ele>1374</ele>
        <time>2022-06-09T21:28:53Z</time>
      </trkpt>
      <trkpt lat="44.54189" lon="5.73384">
        <ele>1376</ele>
        <time>2022-06-09T21:28:55Z</time>
      </trkpt>
      <trkpt lat="44.54186" lon="5.7343">
        <ele>1382</ele>
        <time>2022-06-09T21:29:03Z</time>
      </trkpt>
      <trkpt lat="44.54182" lon="5.73439">
        <ele>1384</ele>
        <time>2022-06-09T21:29:04Z</time>
      </trkpt>
      <trkpt lat="44.54181" lon="5.73449">
        <ele>1385</ele>
        <time>2022-06-09T21:29:06Z</time>
      </trkpt>
      <trkpt lat="44.54182" lon="5.73466">
        <ele>1385</ele>
        <time>2022-06-09T21:29:09Z</time>
      </trkpt>
      <trkpt lat="44.5418" lon="5.73475">
        <ele>1387</ele>
        <time>2022-06-09T21:29:11Z</time>
      </trkpt>
      <trkpt lat="44.54182" lon="5.73485">
        <ele>1387</ele>
        <time>2022-06-09T21:29:12Z</time>
      </trkpt>
      <trkpt lat="44.5418" lon="5.73498">
        <ele>1388</ele>
        <time>2022-06-09T21:29:14Z</time>
      </trkpt>
      <trkpt lat="44.54171" lon="5.73523">
        <ele>1393</ele>
        <time>2022-06-09T21:29:19Z</time>
      </trkpt>
      <trkpt lat="44.54171" lon="5.73537">
        <ele>1394</ele>
        <time>2022-06-09T21:29:21Z</time>
      </trkpt>
      <trkpt lat="44.54162" lon="5.73573">
        <ele>1398</ele>
        <time>2022-06-09T21:29:28Z</time>
      </trkpt>
      <trkpt lat="44.54156" lon="5.73618">
        <ele>1402</ele>
        <time>2022-06-09T21:29:35Z</time>
      </trkpt>
      <trkpt lat="44.54156" lon="5.73614">
        <ele>1402</ele>
        <time>2022-06-09T21:29:36Z</time>
      </trkpt>
      <trkpt lat="44.54158" lon="5.73621">
        <ele>1402</ele>
        <time>2022-06-09T21:29:37Z</time>
      </trkpt>
      <trkpt lat="44.54147" lon="5.73678">
        <ele>1407</ele>
        <time>2022-06-09T21:29:47Z</time>
      </trkpt>
      <trkpt lat="44.54138" lon="5.73756">
        <ele>1413</ele>
        <time>2022-06-09T21:30:00Z</time>
      </trkpt>
      <trkpt lat="44.54137" lon="5.73775">
        <ele>1415</ele>
        <time>2022-06-09T21:30:03Z</time>
      </trkpt>
      <trkpt lat="44.54139" lon="5.73789">
        <ele>1416</ele>
        <time>2022-06-09T21:30:06Z</time>
      </trkpt>
      <trkpt lat="44.54133" lon="5.73817">
        <ele>1420</ele>
        <time>2022-06-09T21:30:11Z</time>
      </trkpt>
      <trkpt lat="44.54131" lon="5.73878">
        <ele>1427</ele>
        <time>2022-06-09T21:30:21Z</time>
      </trkpt>
      <trkpt lat="44.54124" lon="5.7393">
        <ele>1435</ele>
        <time>2022-06-09T21:30:30Z</time>
      </trkpt>
      <trkpt lat="44.54124" lon="5.73963">
        <ele>1437</ele>
        <time>2022-06-09T21:30:35Z</time>
      </trkpt>
      <trkpt lat="44.54117" lon="5.74003">
        <ele>1442</ele>
        <time>2022-06-09T21:30:42Z</time>
      </trkpt>
      <trkpt lat="44.54115" lon="5.74134">
        <ele>1449</ele>
        <time>2022-06-09T21:31:04Z</time>
      </trkpt>
      <trkpt lat="44.54105" lon="5.74195">
        <ele>1455</ele>
        <time>2022-06-09T21:31:14Z</time>
      </trkpt>
      <trkpt lat="44.54101" lon="5.74251">
        <ele>1460</ele>
        <time>2022-06-09T21:31:24Z</time>
      </trkpt>
      <trkpt lat="44.54092" lon="5.74315">
        <ele>1469</ele>
        <time>2022-06-09T21:31:35Z</time>
      </trkpt>
      <trkpt lat="44.54093" lon="5.74391">
        <ele>1473</ele>
        <time>2022-06-09T21:31:47Z</time>
      </trkpt>
      <trkpt lat="44.54088" lon="5.74444">
        <ele>1472</ele>
        <time>2022-06-09T21:31:56Z</time>
      </trkpt>
      <trkpt lat="44.54094" lon="5.74455">
        <ele>1471</ele>
        <time>2022-06-09T21:31:58Z</time>
      </trkpt>
      <trkpt lat="44.54094" lon="5.74464">
        <ele>1470</ele>
        <time>2022-06-09T21:32:00Z</time>
      </trkpt>
      <trkpt lat="44.54093" lon="5.74461">
        <ele>1470</ele>
        <time>2022-06-09T21:32:00Z</time>
      </trkpt>
      <trkpt lat="44.54097" lon="5.74466">
        <ele>1469</ele>
        <time>2022-06-09T21:32:02Z</time>
      </trkpt>
      <trkpt lat="44.541" lon="5.74494">
        <ele>1468</ele>
        <time>2022-06-09T21:32:06Z</time>
      </trkpt>
      <trkpt lat="44.54111" lon="5.74535">
        <ele>1462</ele>
        <time>2022-06-09T21:32:14Z</time>
      </trkpt>
      <trkpt lat="44.54116" lon="5.7457">
        <ele>1459</ele>
        <time>2022-06-09T21:32:20Z</time>
      </trkpt>
      <trkpt lat="44.54123" lon="5.74598">
        <ele>1455</ele>
        <time>2022-06-09T21:32:25Z</time>
      </trkpt>
      <trkpt lat="44.54124" lon="5.746">
        <ele>1455</ele>
        <time>2022-06-09T21:32:25Z</time>
      </trkpt>
      <trkpt lat="44.54125" lon="5.74598">
        <ele>1455</ele>
        <time>2022-06-09T21:32:25Z</time>
      </trkpt>
      <trkpt lat="44.54123" lon="5.74598">
        <ele>1455</ele>
        <time>2022-06-09T21:32:26Z</time>
      </trkpt>
      <trkpt lat="44.54127" lon="5.74595">
        <ele>1456</ele>
        <time>2022-06-09T21:32:27Z</time>
      </trkpt>
      <trkpt lat="44.5414" lon="5.7465">
        <ele>1448</ele>
        <time>2022-06-09T21:32:37Z</time>
      </trkpt>
      <trkpt lat="44.54148" lon="5.74671">
        <ele>1447</ele>
        <time>2022-06-09T21:32:40Z</time>
      </trkpt>
      <trkpt lat="44.54154" lon="5.74701">
        <ele>1443</ele>
        <time>2022-06-09T21:32:46Z</time>
      </trkpt>
      <trkpt lat="44.5417" lon="5.74741">
        <ele>1441</ele>
        <time>2022-06-09T21:32:53Z</time>
      </trkpt>
      <trkpt lat="44.54182" lon="5.74806">
        <ele>1430</ele>
        <time>2022-06-09T21:33:04Z</time>
      </trkpt>
      <trkpt lat="44.54184" lon="5.74835">
        <ele>1426</ele>
        <time>2022-06-09T21:33:09Z</time>
      </trkpt>
      <trkpt lat="44.5419" lon="5.74859">
        <ele>1423</ele>
        <time>2022-06-09T21:33:14Z</time>
      </trkpt>
      <trkpt lat="44.54193" lon="5.74884">
        <ele>1420</ele>
        <time>2022-06-09T21:33:18Z</time>
      </trkpt>
      <trkpt lat="44.54193" lon="5.7493">
        <ele>1413</ele>
        <time>2022-06-09T21:33:25Z</time>
      </trkpt>
      <trkpt lat="44.54225" lon="5.75032">
        <ele>1404</ele>
        <time>2022-06-09T21:33:44Z</time>
      </trkpt>
      <trkpt lat="44.54223" lon="5.75051">
        <ele>1400</ele>
        <time>2022-06-09T21:33:47Z</time>
      </trkpt>
      <trkpt lat="44.54225" lon="5.75069">
        <ele>1399</ele>
        <time>2022-06-09T21:33:50Z</time>
      </trkpt>
      <trkpt lat="44.54236" lon="5.75087">
        <ele>1401</ele>
        <time>2022-06-09T21:33:54Z</time>
      </trkpt>
      <trkpt lat="44.54243" lon="5.75108">
        <ele>1403</ele>
        <time>2022-06-09T21:33:58Z</time>
      </trkpt>
      <trkpt lat="44.54249" lon="5.75145">
        <ele>1402</ele>
        <time>2022-06-09T21:34:04Z</time>
      </trkpt>
      <trkpt lat="44.54248" lon="5.75153">
        <ele>1401</ele>
        <time>2022-06-09T21:34:06Z</time>
      </trkpt>
      <trkpt lat="44.54241" lon="5.75168">
        <ele>1396</ele>
        <time>2022-06-09T21:34:09Z</time>
      </trkpt>
      <trkpt lat="44.5424" lon="5.75181">
        <ele>1395</ele>
        <time>2022-06-09T21:34:11Z</time>
      </trkpt>
      <trkpt lat="44.54245" lon="5.75188">
        <ele>1397</ele>
        <time>2022-06-09T21:34:13Z</time>
      </trkpt>
      <trkpt lat="44.54248" lon="5.7521">
        <ele>1397</ele>
        <time>2022-06-09T21:34:16Z</time>
      </trkpt>
      <trkpt lat="44.54256" lon="5.75238">
        <ele>1395</ele>
        <time>2022-06-09T21:34:21Z</time>
      </trkpt>
      <trkpt lat="44.5427" lon="5.75337">
        <ele>1390</ele>
        <time>2022-06-09T21:34:38Z</time>
      </trkpt>
      <trkpt lat="44.5427" lon="5.75394">
        <ele>1383</ele>
        <time>2022-06-09T21:34:48Z</time>
      </trkpt>
      <trkpt lat="44.54267" lon="5.75402">
        <ele>1383</ele>
        <time>2022-06-09T21:34:49Z</time>
      </trkpt>
      <trkpt lat="44.54268" lon="5.75411">
        <ele>1381</ele>
        <time>2022-06-09T21:34:51Z</time>
      </trkpt>
      <trkpt lat="44.54266" lon="5.75419">
        <ele>1380</ele>
        <time>2022-06-09T21:34:52Z</time>
      </trkpt>
      <trkpt lat="44.54273" lon="5.75483">
        <ele>1369</ele>
        <time>2022-06-09T21:35:03Z</time>
      </trkpt>
      <trkpt lat="44.54269" lon="5.75504">
        <ele>1365</ele>
        <time>2022-06-09T21:35:06Z</time>
      </trkpt>
      <trkpt lat="44.54265" lon="5.75564">
        <ele>1355</ele>
        <time>2022-06-09T21:35:16Z</time>
      </trkpt>
      <trkpt lat="44.54265" lon="5.75562">
        <ele>1355</ele>
        <time>2022-06-09T21:35:17Z</time>
      </trkpt>
      <trkpt lat="44.54267" lon="5.75563">
        <ele>1355</ele>
        <time>2022-06-09T21:35:17Z</time>
      </trkpt>
      <trkpt lat="44.54267" lon="5.75569">
        <ele>1354</ele>
        <time>2022-06-09T21:35:18Z</time>
      </trkpt>
      <trkpt lat="44.54271" lon="5.75566">
        <ele>1355</ele>
        <time>2022-06-09T21:35:19Z</time>
      </trkpt>
      <trkpt lat="44.54274" lon="5.75576">
        <ele>1353</ele>
        <time>2022-06-09T21:35:21Z</time>
      </trkpt>
      <trkpt lat="44.54271" lon="5.75618">
        <ele>1344</ele>
        <time>2022-06-09T21:35:28Z</time>
      </trkpt>
      <trkpt lat="44.54273" lon="5.75637">
        <ele>1339</ele>
        <time>2022-06-09T21:35:31Z</time>
      </trkpt>
      <trkpt lat="44.54272" lon="5.75634">
        <ele>1340</ele>
        <time>2022-06-09T21:35:32Z</time>
      </trkpt>
      <trkpt lat="44.54286" lon="5.75642">
        <ele>1339</ele>
        <time>2022-06-09T21:35:35Z</time>
      </trkpt>
      <trkpt lat="44.54285" lon="5.7567">
        <ele>1333</ele>
        <time>2022-06-09T21:35:40Z</time>
      </trkpt>
      <trkpt lat="44.54294" lon="5.75686">
        <ele>1331</ele>
        <time>2022-06-09T21:35:43Z</time>
      </trkpt>
      <trkpt lat="44.54313" lon="5.75775">
        <ele>1318</ele>
        <time>2022-06-09T21:35:59Z</time>
      </trkpt>
      <trkpt lat="44.54326" lon="5.75789">
        <ele>1319</ele>
        <time>2022-06-09T21:36:03Z</time>
      </trkpt>
      <trkpt lat="44.54331" lon="5.75817">
        <ele>1317</ele>
        <time>2022-06-09T21:36:08Z</time>
      </trkpt>
      <trkpt lat="44.54335" lon="5.75821">
        <ele>1317</ele>
        <time>2022-06-09T21:36:09Z</time>
      </trkpt>
      <trkpt lat="44.54337" lon="5.75832">
        <ele>1314</ele>
        <time>2022-06-09T21:36:11Z</time>
      </trkpt>
      <trkpt lat="44.54336" lon="5.75829">
        <ele>1315</ele>
        <time>2022-06-09T21:36:11Z</time>
      </trkpt>
      <trkpt lat="44.54334" lon="5.75834">
        <ele>1315</ele>
        <time>2022-06-09T21:36:12Z</time>
      </trkpt>
      <trkpt lat="44.54328" lon="5.75832">
        <ele>1313</ele>
        <time>2022-06-09T21:36:14Z</time>
      </trkpt>
      <trkpt lat="44.54323" lon="5.75835">
        <ele>1310</ele>
        <time>2022-06-09T21:36:15Z</time>
      </trkpt>
      <trkpt lat="44.54317" lon="5.75832">
        <ele>1308</ele>
        <time>2022-06-09T21:36:16Z</time>
      </trkpt>
      <trkpt lat="44.54314" lon="5.75835">
        <ele>1306</ele>
        <time>2022-06-09T21:36:17Z</time>
      </trkpt>
      <trkpt lat="44.54321" lon="5.75853">
        <ele>1304</ele>
        <time>2022-06-09T21:36:21Z</time>
      </trkpt>
      <trkpt lat="44.54326" lon="5.75895">
        <ele>1293</ele>
        <time>2022-06-09T21:36:28Z</time>
      </trkpt>
      <trkpt lat="44.54335" lon="5.75915">
        <ele>1289</ele>
        <time>2022-06-09T21:36:32Z</time>
      </trkpt>
      <trkpt lat="44.54338" lon="5.75928">
        <ele>1285</ele>
        <time>2022-06-09T21:36:34Z</time>
      </trkpt>
      <trkpt lat="44.54346" lon="5.75941">
        <ele>1280</ele>
        <time>2022-06-09T21:36:37Z</time>
      </trkpt>
      <trkpt lat="44.54349" lon="5.75942">
        <ele>1280</ele>
        <time>2022-06-09T21:36:37Z</time>
      </trkpt>
      <trkpt lat="44.5435" lon="5.75945">
        <ele>1279</ele>
        <time>2022-06-09T21:36:38Z</time>
      </trkpt>
      <trkpt lat="44.54348" lon="5.75947">
        <ele>1278</ele>
        <time>2022-06-09T21:36:39Z</time>
      </trkpt>
      <trkpt lat="44.54355" lon="5.75953">
        <ele>1277</ele>
        <time>2022-06-09T21:36:40Z</time>
      </trkpt>
      <trkpt lat="44.54364" lon="5.75978">
        <ele>1269</ele>
        <time>2022-06-09T21:36:45Z</time>
      </trkpt>
      <trkpt lat="44.54363" lon="5.75983">
        <ele>1268</ele>
        <time>2022-06-09T21:36:46Z</time>
      </trkpt>
      <trkpt lat="44.54371" lon="5.75996">
        <ele>1265</ele>
        <time>2022-06-09T21:36:49Z</time>
      </trkpt>
      <trkpt lat="44.54365" lon="5.76013">
        <ele>1258</ele>
        <time>2022-06-09T21:36:52Z</time>
      </trkpt>
      <trkpt lat="44.54368" lon="5.76031">
        <ele>1252</ele>
        <time>2022-06-09T21:36:55Z</time>
      </trkpt>
      <trkpt lat="44.54364" lon="5.76035">
        <ele>1249</ele>
        <time>2022-06-09T21:36:56Z</time>
      </trkpt>
      <trkpt lat="44.54365" lon="5.76046">
        <ele>1246</ele>
        <time>2022-06-09T21:36:58Z</time>
      </trkpt>
      <trkpt lat="44.54363" lon="5.76048">
        <ele>1244</ele>
        <time>2022-06-09T21:36:59Z</time>
      </trkpt>
      <trkpt lat="44.54367" lon="5.76055">
        <ele>1243</ele>
        <time>2022-06-09T21:37:00Z</time>
      </trkpt>
      <trkpt lat="44.54363" lon="5.76061">
        <ele>1239</ele>
        <time>2022-06-09T21:37:02Z</time>
      </trkpt>
      <trkpt lat="44.5437" lon="5.76067">
        <ele>1239</ele>
        <time>2022-06-09T21:37:03Z</time>
      </trkpt>
      <trkpt lat="44.54367" lon="5.76076">
        <ele>1235</ele>
        <time>2022-06-09T21:37:05Z</time>
      </trkpt>
      <trkpt lat="44.5437" lon="5.76083">
        <ele>1233</ele>
        <time>2022-06-09T21:37:06Z</time>
      </trkpt>
      <trkpt lat="44.54368" lon="5.76096">
        <ele>1228</ele>
        <time>2022-06-09T21:37:09Z</time>
      </trkpt>
      <trkpt lat="44.54359" lon="5.7611">
        <ele>1219</ele>
        <time>2022-06-09T21:37:12Z</time>
      </trkpt>
      <trkpt lat="44.54359" lon="5.76115">
        <ele>1217</ele>
        <time>2022-06-09T21:37:13Z</time>
      </trkpt>
      <trkpt lat="44.54369" lon="5.76131">
        <ele>1214</ele>
        <time>2022-06-09T21:37:16Z</time>
      </trkpt>
      <trkpt lat="44.54367" lon="5.76136">
        <ele>1211</ele>
        <time>2022-06-09T21:37:17Z</time>
      </trkpt>
      <trkpt lat="44.54376" lon="5.76144">
        <ele>1211</ele>
        <time>2022-06-09T21:37:20Z</time>
      </trkpt>
      <trkpt lat="44.54376" lon="5.76156">
        <ele>1206</ele>
        <time>2022-06-09T21:37:22Z</time>
      </trkpt>
      <trkpt lat="44.54384" lon="5.76162">
        <ele>1207</ele>
        <time>2022-06-09T21:37:24Z</time>
      </trkpt>
      <trkpt lat="44.54389" lon="5.76177">
        <ele>1202</ele>
        <time>2022-06-09T21:37:27Z</time>
      </trkpt>
      <trkpt lat="44.54398" lon="5.76184">
        <ele>1203</ele>
        <time>2022-06-09T21:37:29Z</time>
      </trkpt>
      <trkpt lat="44.54394" lon="5.76194">
        <ele>1198</ele>
        <time>2022-06-09T21:37:31Z</time>
      </trkpt>
      <trkpt lat="44.54397" lon="5.76196">
        <ele>1198</ele>
        <time>2022-06-09T21:37:32Z</time>
      </trkpt>
      <trkpt lat="44.544" lon="5.76209">
        <ele>1194</ele>
        <time>2022-06-09T21:37:34Z</time>
      </trkpt>
      <trkpt lat="44.54408" lon="5.76213">
        <ele>1195</ele>
        <time>2022-06-09T21:37:36Z</time>
      </trkpt>
      <trkpt lat="44.54429" lon="5.76236">
        <ele>1191</ele>
        <time>2022-06-09T21:37:42Z</time>
      </trkpt>
      <trkpt lat="44.54443" lon="5.76246">
        <ele>1188</ele>
        <time>2022-06-09T21:37:46Z</time>
      </trkpt>
      <trkpt lat="44.54446" lon="5.76246">
        <ele>1188</ele>
        <time>2022-06-09T21:37:46Z</time>
      </trkpt>
      <trkpt lat="44.54443" lon="5.76245">
        <ele>1188</ele>
        <time>2022-06-09T21:37:47Z</time>
      </trkpt>
      <trkpt lat="44.54453" lon="5.76256">
        <ele>1186</ele>
        <time>2022-06-09T21:37:50Z</time>
      </trkpt>
      <trkpt lat="44.54454" lon="5.76275">
        <ele>1180</ele>
        <time>2022-06-09T21:37:53Z</time>
      </trkpt>
      <trkpt lat="44.5446" lon="5.76291">
        <ele>1177</ele>
        <time>2022-06-09T21:37:56Z</time>
      </trkpt>
      <trkpt lat="44.54461" lon="5.76301">
        <ele>1174</ele>
        <time>2022-06-09T21:37:58Z</time>
      </trkpt>
      <trkpt lat="44.54474" lon="5.76326">
        <ele>1169</ele>
        <time>2022-06-09T21:38:03Z</time>
      </trkpt>
      <trkpt lat="44.54472" lon="5.76348">
        <ele>1165</ele>
        <time>2022-06-09T21:38:07Z</time>
      </trkpt>
      <trkpt lat="44.54476" lon="5.76358">
        <ele>1165</ele>
        <time>2022-06-09T21:38:09Z</time>
      </trkpt>
      <trkpt lat="44.54476" lon="5.76368">
        <ele>1165</ele>
        <time>2022-06-09T21:38:10Z</time>
      </trkpt>
      <trkpt lat="44.54463" lon="5.764">
        <ele>1161</ele>
        <time>2022-06-09T21:38:17Z</time>
      </trkpt>
      <trkpt lat="44.54463" lon="5.76416">
        <ele>1160</ele>
        <time>2022-06-09T21:38:19Z</time>
      </trkpt>
      <trkpt lat="44.54446" lon="5.76413">
        <ele>1157</ele>
        <time>2022-06-09T21:38:23Z</time>
      </trkpt>
      <trkpt lat="44.54424" lon="5.76415">
        <ele>1154</ele>
        <time>2022-06-09T21:38:28Z</time>
      </trkpt>
      <trkpt lat="44.54412" lon="5.76418">
        <ele>1151</ele>
        <time>2022-06-09T21:38:31Z</time>
      </trkpt>
      <trkpt lat="44.54392" lon="5.76429">
        <ele>1145</ele>
        <time>2022-06-09T21:38:36Z</time>
      </trkpt>
      <trkpt lat="44.54358" lon="5.76473">
        <ele>1137</ele>
        <time>2022-06-09T21:38:47Z</time>
      </trkpt>
      <trkpt lat="44.54338" lon="5.76491">
        <ele>1130</ele>
        <time>2022-06-09T21:38:53Z</time>
      </trkpt>
      <trkpt lat="44.54334" lon="5.7649">
        <ele>1128</ele>
        <time>2022-06-09T21:38:54Z</time>
      </trkpt>
      <trkpt lat="44.54325" lon="5.76477">
        <ele>1122</ele>
        <time>2022-06-09T21:38:57Z</time>
      </trkpt>
      <trkpt lat="44.54331" lon="5.76448">
        <ele>1123</ele>
        <time>2022-06-09T21:39:02Z</time>
      </trkpt>
      <trkpt lat="44.54327" lon="5.76441">
        <ele>1120</ele>
        <time>2022-06-09T21:39:03Z</time>
      </trkpt>
      <trkpt lat="44.54329" lon="5.76434">
        <ele>1120</ele>
        <time>2022-06-09T21:39:04Z</time>
      </trkpt>
      <trkpt lat="44.54328" lon="5.7642">
        <ele>1118</ele>
        <time>2022-06-09T21:39:07Z</time>
      </trkpt>
      <trkpt lat="44.54319" lon="5.76416">
        <ele>1114</ele>
        <time>2022-06-09T21:39:09Z</time>
      </trkpt>
      <trkpt lat="44.54302" lon="5.76396">
        <ele>1107</ele>
        <time>2022-06-09T21:39:14Z</time>
      </trkpt>
      <trkpt lat="44.54298" lon="5.76395">
        <ele>1105</ele>
        <time>2022-06-09T21:39:15Z</time>
      </trkpt>
      <trkpt lat="44.54257" lon="5.76359">
        <ele>1090</ele>
        <time>2022-06-09T21:39:26Z</time>
      </trkpt>
      <trkpt lat="44.54226" lon="5.7634">
        <ele>1079</ele>
        <time>2022-06-09T21:39:34Z</time>
      </trkpt>
      <trkpt lat="44.54202" lon="5.76328">
        <ele>1072</ele>
        <time>2022-06-09T21:39:40Z</time>
      </trkpt>
      <trkpt lat="44.54198" lon="5.76328">
        <ele>1070</ele>
        <time>2022-06-09T21:39:41Z</time>
      </trkpt>
      <trkpt lat="44.54184" lon="5.76319">
        <ele>1067</ele>
        <time>2022-06-09T21:39:45Z</time>
      </trkpt>
      <trkpt lat="44.5418" lon="5.76319">
        <ele>1066</ele>
        <time>2022-06-09T21:39:46Z</time>
      </trkpt>
      <trkpt lat="44.54156" lon="5.76303">
        <ele>1061</ele>
        <time>2022-06-09T21:39:52Z</time>
      </trkpt>
      <trkpt lat="44.54147" lon="5.76302">
        <ele>1057</ele>
        <time>2022-06-09T21:39:54Z</time>
      </trkpt>
      <trkpt lat="44.54141" lon="5.76298">
        <ele>1056</ele>
        <time>2022-06-09T21:39:55Z</time>
      </trkpt>
      <trkpt lat="44.54107" lon="5.76293">
        <ele>1042</ele>
        <time>2022-06-09T21:40:03Z</time>
      </trkpt>
      <trkpt lat="44.54075" lon="5.76275">
        <ele>1035</ele>
        <time>2022-06-09T21:40:11Z</time>
      </trkpt>
      <trkpt lat="44.54053" lon="5.76267">
        <ele>1028</ele>
        <time>2022-06-09T21:40:17Z</time>
      </trkpt>
      <trkpt lat="44.54042" lon="5.76253">
        <ele>1029</ele>
        <time>2022-06-09T21:40:20Z</time>
      </trkpt>
      <trkpt lat="44.53998" lon="5.7622">
        <ele>1023</ele>
        <time>2022-06-09T21:40:32Z</time>
      </trkpt>
      <trkpt lat="44.53982" lon="5.76216">
        <ele>1020</ele>
        <time>2022-06-09T21:40:36Z</time>
      </trkpt>
      <trkpt lat="44.53968" lon="5.76206">
        <ele>1019</ele>
        <time>2022-06-09T21:40:39Z</time>
      </trkpt>
      <trkpt lat="44.53953" lon="5.76202">
        <ele>1017</ele>
        <time>2022-06-09T21:40:43Z</time>
      </trkpt>
      <trkpt lat="44.53937" lon="5.76193">
        <ele>1015</ele>
        <time>2022-06-09T21:40:47Z</time>
      </trkpt>
      <trkpt lat="44.53918" lon="5.76187">
        <ele>1012</ele>
        <time>2022-06-09T21:40:52Z</time>
      </trkpt>
      <trkpt lat="44.53894" lon="5.76166">
        <ele>1011</ele>
        <time>2022-06-09T21:40:58Z</time>
      </trkpt>
      <trkpt lat="44.53868" lon="5.76141">
        <ele>1007</ele>
        <time>2022-06-09T21:41:05Z</time>
      </trkpt>
      <trkpt lat="44.53845" lon="5.76112">
        <ele>1004</ele>
        <time>2022-06-09T21:41:13Z</time>
      </trkpt>
      <trkpt lat="44.5383" lon="5.76086">
        <ele>1002</ele>
        <time>2022-06-09T21:41:18Z</time>
      </trkpt>
      <trkpt lat="44.53824" lon="5.7608">
        <ele>1000</ele>
        <time>2022-06-09T21:41:20Z</time>
      </trkpt>
      <trkpt lat="44.53809" lon="5.76047">
        <ele>997</ele>
        <time>2022-06-09T21:41:27Z</time>
      </trkpt>
      <trkpt lat="44.53792" lon="5.75994">
        <ele>995</ele>
        <time>2022-06-09T21:41:36Z</time>
      </trkpt>
      <trkpt lat="44.53783" lon="5.75979">
        <ele>993</ele>
        <time>2022-06-09T21:41:39Z</time>
      </trkpt>
      <trkpt lat="44.53781" lon="5.75981">
        <ele>992</ele>
        <time>2022-06-09T21:41:40Z</time>
      </trkpt>
      <trkpt lat="44.53749" lon="5.75913">
        <ele>988</ele>
        <time>2022-06-09T21:41:54Z</time>
      </trkpt>
      <trkpt lat="44.53724" lon="5.75872">
        <ele>983</ele>
        <time>2022-06-09T21:42:03Z</time>
      </trkpt>
      <trkpt lat="44.53715" lon="5.75852">
        <ele>982</ele>
        <time>2022-06-09T21:42:07Z</time>
      </trkpt>
      <trkpt lat="44.53702" lon="5.7581">
        <ele>981</ele>
        <time>2022-06-09T21:42:14Z</time>
      </trkpt>
      <trkpt lat="44.53697" lon="5.75782">
        <ele>982</ele>
        <time>2022-06-09T21:42:19Z</time>
      </trkpt>
      <trkpt lat="44.53688" lon="5.7577">
        <ele>979</ele>
        <time>2022-06-09T21:42:22Z</time>
      </trkpt>
      <trkpt lat="44.53676" lon="5.75765">
        <ele>974</ele>
        <time>2022-06-09T21:42:25Z</time>
      </trkpt>
      <trkpt lat="44.53681" lon="5.75768">
        <ele>976</ele>
        <time>2022-06-09T21:42:26Z</time>
      </trkpt>
      <trkpt lat="44.53671" lon="5.75757">
        <ele>973</ele>
        <time>2022-06-09T21:42:29Z</time>
      </trkpt>
      <trkpt lat="44.53669" lon="5.75745">
        <ele>974</ele>
        <time>2022-06-09T21:42:31Z</time>
      </trkpt>
      <trkpt lat="44.53663" lon="5.75733">
        <ele>974</ele>
        <time>2022-06-09T21:42:33Z</time>
      </trkpt>
      <trkpt lat="44.53647" lon="5.75723">
        <ele>969</ele>
        <time>2022-06-09T21:42:38Z</time>
      </trkpt>
      <trkpt lat="44.53614" lon="5.75685">
        <ele>962</ele>
        <time>2022-06-09T21:42:48Z</time>
      </trkpt>
      <trkpt lat="44.53601" lon="5.75653">
        <ele>963</ele>
        <time>2022-06-09T21:42:54Z</time>
      </trkpt>
      <trkpt lat="44.53579" lon="5.75638">
        <ele>958</ele>
        <time>2022-06-09T21:42:59Z</time>
      </trkpt>
      <trkpt lat="44.53552" lon="5.75606">
        <ele>956</ele>
        <time>2022-06-09T21:43:08Z</time>
      </trkpt>
      <trkpt lat="44.53516" lon="5.75582">
        <ele>950</ele>
        <time>2022-06-09T21:43:17Z</time>
      </trkpt>
      <trkpt lat="44.53497" lon="5.75562">
        <ele>949</ele>
        <time>2022-06-09T21:43:22Z</time>
      </trkpt>
      <trkpt lat="44.53463" lon="5.75559">
        <ele>941</ele>
        <time>2022-06-09T21:43:30Z</time>
      </trkpt>
      <trkpt lat="44.53427" lon="5.75543">
        <ele>935</ele>
        <time>2022-06-09T21:43:39Z</time>
      </trkpt>
      <trkpt lat="44.53404" lon="5.7555">
        <ele>928</ele>
        <time>2022-06-09T21:43:45Z</time>
      </trkpt>
      <trkpt lat="44.534" lon="5.75547">
        <ele>927</ele>
        <time>2022-06-09T21:43:46Z</time>
      </trkpt>
      <trkpt lat="44.53372" lon="5.75552">
        <ele>920</ele>
        <time>2022-06-09T21:43:52Z</time>
      </trkpt>
      <trkpt lat="44.5337" lon="5.7555">
        <ele>919</ele>
        <time>2022-06-09T21:43:53Z</time>
      </trkpt>
      <trkpt lat="44.53369" lon="5.75543">
        <ele>919</ele>
        <time>2022-06-09T21:43:54Z</time>
      </trkpt>
      <trkpt lat="44.5338" lon="5.75475">
        <ele>920</ele>
        <time>2022-06-09T21:44:06Z</time>
      </trkpt>
      <trkpt lat="44.53392" lon="5.75439">
        <ele>923</ele>
        <time>2022-06-09T21:44:12Z</time>
      </trkpt>
      <trkpt lat="44.53388" lon="5.75434">
        <ele>922</ele>
        <time>2022-06-09T21:44:14Z</time>
      </trkpt>
      <trkpt lat="44.53388" lon="5.75414">
        <ele>921</ele>
        <time>2022-06-09T21:44:17Z</time>
      </trkpt>
      <trkpt lat="44.53384" lon="5.75403">
        <ele>921</ele>
        <time>2022-06-09T21:44:19Z</time>
      </trkpt>
      <trkpt lat="44.53379" lon="5.75397">
        <ele>921</ele>
        <time>2022-06-09T21:44:21Z</time>
      </trkpt>
      <trkpt lat="44.53374" lon="5.75396">
        <ele>919</ele>
        <time>2022-06-09T21:44:22Z</time>
      </trkpt>
      <trkpt lat="44.53345" lon="5.7541">
        <ele>907</ele>
        <time>2022-06-09T21:44:29Z</time>
      </trkpt>
      <trkpt lat="44.53342" lon="5.75409">
        <ele>907</ele>
        <time>2022-06-09T21:44:30Z</time>
      </trkpt>
      <trkpt lat="44.5334" lon="5.75404">
        <ele>907</ele>
        <time>2022-06-09T21:44:31Z</time>
      </trkpt>
      <trkpt lat="44.53335" lon="5.75403">
        <ele>906</ele>
        <time>2022-06-09T21:44:32Z</time>
      </trkpt>
      <trkpt lat="44.53322" lon="5.75406">
        <ele>903</ele>
        <time>2022-06-09T21:44:35Z</time>
      </trkpt>
      <trkpt lat="44.53314" lon="5.75401">
        <ele>903</ele>
        <time>2022-06-09T21:44:37Z</time>
      </trkpt>
      <trkpt lat="44.53305" lon="5.75388">
        <ele>905</ele>
        <time>2022-06-09T21:44:40Z</time>
      </trkpt>
      <trkpt lat="44.53304" lon="5.75383">
        <ele>906</ele>
        <time>2022-06-09T21:44:41Z</time>
      </trkpt>
      <trkpt lat="44.53295" lon="5.75374">
        <ele>907</ele>
        <time>2022-06-09T21:44:43Z</time>
      </trkpt>
      <trkpt lat="44.53292" lon="5.7536">
        <ele>911</ele>
        <time>2022-06-09T21:44:46Z</time>
      </trkpt>
      <trkpt lat="44.53286" lon="5.75351">
        <ele>913</ele>
        <time>2022-06-09T21:44:48Z</time>
      </trkpt>
      <trkpt lat="44.5328" lon="5.7536">
        <ele>910</ele>
        <time>2022-06-09T21:44:50Z</time>
      </trkpt>
      <trkpt lat="44.53268" lon="5.75359">
        <ele>909</ele>
        <time>2022-06-09T21:44:53Z</time>
      </trkpt>
      <trkpt lat="44.53256" lon="5.75351">
        <ele>911</ele>
        <time>2022-06-09T21:44:56Z</time>
      </trkpt>
      <trkpt lat="44.53245" lon="5.75352">
        <ele>910</ele>
        <time>2022-06-09T21:44:58Z</time>
      </trkpt>
      <trkpt lat="44.53215" lon="5.75361">
        <ele>906</ele>
        <time>2022-06-09T21:45:06Z</time>
      </trkpt>
      <trkpt lat="44.5321" lon="5.75365">
        <ele>904</ele>
        <time>2022-06-09T21:45:07Z</time>
      </trkpt>
      <trkpt lat="44.53206" lon="5.75364">
        <ele>904</ele>
        <time>2022-06-09T21:45:08Z</time>
      </trkpt>
      <trkpt lat="44.53157" lon="5.75373">
        <ele>899</ele>
        <time>2022-06-09T21:45:19Z</time>
      </trkpt>
      <trkpt lat="44.53131" lon="5.75382">
        <ele>893</ele>
        <time>2022-06-09T21:45:26Z</time>
      </trkpt>
      <trkpt lat="44.53104" lon="5.75383">
        <ele>890</ele>
        <time>2022-06-09T21:45:32Z</time>
      </trkpt>
      <trkpt lat="44.53101" lon="5.75382">
        <ele>890</ele>
        <time>2022-06-09T21:45:33Z</time>
      </trkpt>
      <trkpt lat="44.53094" lon="5.75372">
        <ele>892</ele>
        <time>2022-06-09T21:45:35Z</time>
      </trkpt>
      <trkpt lat="44.53091" lon="5.75372">
        <ele>892</ele>
        <time>2022-06-09T21:45:36Z</time>
      </trkpt>
      <trkpt lat="44.53087" lon="5.75376">
        <ele>891</ele>
        <time>2022-06-09T21:45:37Z</time>
      </trkpt>
      <trkpt lat="44.53086" lon="5.75382">
        <ele>889</ele>
        <time>2022-06-09T21:45:38Z</time>
      </trkpt>
      <trkpt lat="44.53088" lon="5.75384">
        <ele>889</ele>
        <time>2022-06-09T21:45:38Z</time>
      </trkpt>
      <trkpt lat="44.53086" lon="5.75388">
        <ele>887</ele>
        <time>2022-06-09T21:45:39Z</time>
      </trkpt>
      <trkpt lat="44.53071" lon="5.75408">
        <ele>881</ele>
        <time>2022-06-09T21:45:44Z</time>
      </trkpt>
      <trkpt lat="44.53074" lon="5.75415">
        <ele>880</ele>
        <time>2022-06-09T21:45:45Z</time>
      </trkpt>
      <trkpt lat="44.53072" lon="5.75416">
        <ele>879</ele>
        <time>2022-06-09T21:45:46Z</time>
      </trkpt>
      <trkpt lat="44.5307" lon="5.75402">
        <ele>882</ele>
        <time>2022-06-09T21:45:48Z</time>
      </trkpt>
      <trkpt lat="44.53065" lon="5.75409">
        <ele>880</ele>
        <time>2022-06-09T21:45:50Z</time>
      </trkpt>
      <trkpt lat="44.5306" lon="5.75432">
        <ele>875</ele>
        <time>2022-06-09T21:45:54Z</time>
      </trkpt>
      <trkpt lat="44.53054" lon="5.75438">
        <ele>873</ele>
        <time>2022-06-09T21:45:56Z</time>
      </trkpt>
      <trkpt lat="44.53058" lon="5.75434">
        <ele>874</ele>
        <time>2022-06-09T21:45:57Z</time>
      </trkpt>
      <trkpt lat="44.53055" lon="5.75446">
        <ele>872</ele>
        <time>2022-06-09T21:45:59Z</time>
      </trkpt>
      <trkpt lat="44.53036" lon="5.75457">
        <ele>869</ele>
        <time>2022-06-09T21:46:04Z</time>
      </trkpt>
      <trkpt lat="44.53033" lon="5.75464">
        <ele>868</ele>
        <time>2022-06-09T21:46:05Z</time>
      </trkpt>
      <trkpt lat="44.53021" lon="5.75472">
        <ele>867</ele>
        <time>2022-06-09T21:46:08Z</time>
      </trkpt>
      <trkpt lat="44.53005" lon="5.75489">
        <ele>865</ele>
        <time>2022-06-09T21:46:13Z</time>
      </trkpt>
      <trkpt lat="44.52991" lon="5.75496">
        <ele>863</ele>
        <time>2022-06-09T21:46:16Z</time>
      </trkpt>
      <trkpt lat="44.52978" lon="5.75506">
        <ele>860</ele>
        <time>2022-06-09T21:46:20Z</time>
      </trkpt>
      <trkpt lat="44.52975" lon="5.7552">
        <ele>858</ele>
        <time>2022-06-09T21:46:22Z</time>
      </trkpt>
      <trkpt lat="44.52964" lon="5.75539">
        <ele>854</ele>
        <time>2022-06-09T21:46:26Z</time>
      </trkpt>
      <trkpt lat="44.52936" lon="5.75548">
        <ele>853</ele>
        <time>2022-06-09T21:46:33Z</time>
      </trkpt>
      <trkpt lat="44.52883" lon="5.7559">
        <ele>848</ele>
        <time>2022-06-09T21:46:47Z</time>
      </trkpt>
      <trkpt lat="44.52861" lon="5.75601">
        <ele>845</ele>
        <time>2022-06-09T21:46:53Z</time>
      </trkpt>
      <trkpt lat="44.52825" lon="5.7564">
        <ele>844</ele>
        <time>2022-06-09T21:47:03Z</time>
      </trkpt>
      <trkpt lat="44.52803" lon="5.75671">
        <ele>845</ele>
        <time>2022-06-09T21:47:11Z</time>
      </trkpt>
      <trkpt lat="44.52759" lon="5.757">
        <ele>844</ele>
        <time>2022-06-09T21:47:22Z</time>
      </trkpt>
      <trkpt lat="44.52761" lon="5.757">
        <ele>844</ele>
        <time>2022-06-09T21:47:22Z</time>
      </trkpt>
      <trkpt lat="44.52754" lon="5.75697">
        <ele>843</ele>
        <time>2022-06-09T21:47:24Z</time>
      </trkpt>
      <trkpt lat="44.52749" lon="5.75698">
        <ele>843</ele>
        <time>2022-06-09T21:47:25Z</time>
      </trkpt>
      <trkpt lat="44.52723" lon="5.75712">
        <ele>845</ele>
        <time>2022-06-09T21:47:32Z</time>
      </trkpt>
      <trkpt lat="44.52707" lon="5.75709">
        <ele>844</ele>
        <time>2022-06-09T21:47:36Z</time>
      </trkpt>
      <trkpt lat="44.527" lon="5.7571">
        <ele>844</ele>
        <time>2022-06-09T21:47:37Z</time>
      </trkpt>
      <trkpt lat="44.52665" lon="5.75671">
        <ele>844</ele>
        <time>2022-06-09T21:47:48Z</time>
      </trkpt>
      <trkpt lat="44.52646" lon="5.75638">
        <ele>841</ele>
        <time>2022-06-09T21:47:55Z</time>
      </trkpt>
      <trkpt lat="44.52639" lon="5.75631">
        <ele>841</ele>
        <time>2022-06-09T21:47:57Z</time>
      </trkpt>
      <trkpt lat="44.5263" lon="5.7563">
        <ele>841</ele>
        <time>2022-06-09T21:47:59Z</time>
      </trkpt>
      <trkpt lat="44.52625" lon="5.75622">
        <ele>840</ele>
        <time>2022-06-09T21:48:01Z</time>
      </trkpt>
      <trkpt lat="44.52615" lon="5.75613">
        <ele>840</ele>
        <time>2022-06-09T21:48:03Z</time>
      </trkpt>
      <trkpt lat="44.52598" lon="5.75608">
        <ele>840</ele>
        <time>2022-06-09T21:48:07Z</time>
      </trkpt>
      <trkpt lat="44.52578" lon="5.7559">
        <ele>840</ele>
        <time>2022-06-09T21:48:13Z</time>
      </trkpt>
      <trkpt lat="44.52569" lon="5.75586">
        <ele>839</ele>
        <time>2022-06-09T21:48:15Z</time>
      </trkpt>
      <trkpt lat="44.52561" lon="5.75579">
        <ele>838</ele>
        <time>2022-06-09T21:48:17Z</time>
      </trkpt>
      <trkpt lat="44.52524" lon="5.75521">
        <ele>834</ele>
        <time>2022-06-09T21:48:30Z</time>
      </trkpt>
      <trkpt lat="44.52515" lon="5.75491">
        <ele>834</ele>
        <time>2022-06-09T21:48:36Z</time>
      </trkpt>
      <trkpt lat="44.52507" lon="5.75473">
        <ele>832</ele>
        <time>2022-06-09T21:48:39Z</time>
      </trkpt>
      <trkpt lat="44.52496" lon="5.7547">
        <ele>832</ele>
        <time>2022-06-09T21:48:42Z</time>
      </trkpt>
      <trkpt lat="44.52484" lon="5.75483">
        <ele>831</ele>
        <time>2022-06-09T21:48:45Z</time>
      </trkpt>
      <trkpt lat="44.52459" lon="5.75496">
        <ele>827</ele>
        <time>2022-06-09T21:48:52Z</time>
      </trkpt>
      <trkpt lat="44.52453" lon="5.75493">
        <ele>825</ele>
        <time>2022-06-09T21:48:53Z</time>
      </trkpt>
      <trkpt lat="44.52444" lon="5.75474">
        <ele>822</ele>
        <time>2022-06-09T21:48:57Z</time>
      </trkpt>
      <trkpt lat="44.5243" lon="5.75457">
        <ele>818</ele>
        <time>2022-06-09T21:49:01Z</time>
      </trkpt>
      <trkpt lat="44.52417" lon="5.75453">
        <ele>816</ele>
        <time>2022-06-09T21:49:04Z</time>
      </trkpt>
      <trkpt lat="44.52393" lon="5.75455">
        <ele>808</ele>
        <time>2022-06-09T21:49:10Z</time>
      </trkpt>
      <trkpt lat="44.52424" lon="5.75423">
        <ele>816</ele>
        <time>2022-06-09T21:49:19Z</time>
      </trkpt>
      <trkpt lat="44.52417" lon="5.75423">
        <ele>815</ele>
        <time>2022-06-09T21:49:21Z</time>
      </trkpt>
      <trkpt lat="44.52434" lon="5.75409">
        <ele>816</ele>
        <time>2022-06-09T21:49:25Z</time>
      </trkpt>
      <trkpt lat="44.52443" lon="5.7539">
        <ele>813</ele>
        <time>2022-06-09T21:49:29Z</time>
      </trkpt>
      <trkpt lat="44.52443" lon="5.75388">
        <ele>812</ele>
        <time>2022-06-09T21:49:29Z</time>
      </trkpt>
      <trkpt lat="44.52439" lon="5.75387">
        <ele>811</ele>
        <time>2022-06-09T21:49:30Z</time>
      </trkpt>
      <trkpt lat="44.52428" lon="5.75367">
        <ele>806</ele>
        <time>2022-06-09T21:49:35Z</time>
      </trkpt>
      <trkpt lat="44.52415" lon="5.75352">
        <ele>801</ele>
        <time>2022-06-09T21:49:39Z</time>
      </trkpt>
      <trkpt lat="44.52394" lon="5.75342">
        <ele>795</ele>
        <time>2022-06-09T21:49:44Z</time>
      </trkpt>
      <trkpt lat="44.52376" lon="5.75342">
        <ele>791</ele>
        <time>2022-06-09T21:49:48Z</time>
      </trkpt>
      <trkpt lat="44.52359" lon="5.75347">
        <ele>788</ele>
        <time>2022-06-09T21:49:52Z</time>
      </trkpt>
      <trkpt lat="44.52331" lon="5.75361">
        <ele>784</ele>
        <time>2022-06-09T21:49:59Z</time>
      </trkpt>
      <trkpt lat="44.5232" lon="5.75361">
        <ele>783</ele>
        <time>2022-06-09T21:50:01Z</time>
      </trkpt>
      <trkpt lat="44.52312" lon="5.75351">
        <ele>781</ele>
        <time>2022-06-09T21:50:04Z</time>
      </trkpt>
      <trkpt lat="44.52299" lon="5.75292">
        <ele>776</ele>
        <time>2022-06-09T21:50:14Z</time>
      </trkpt>
      <trkpt lat="44.52277" lon="5.75278">
        <ele>774</ele>
        <time>2022-06-09T21:50:20Z</time>
      </trkpt>
      <trkpt lat="44.52225" lon="5.7526">
        <ele>771</ele>
        <time>2022-06-09T21:50:32Z</time>
      </trkpt>
      <trkpt lat="44.52214" lon="5.75253">
        <ele>771</ele>
        <time>2022-06-09T21:50:35Z</time>
      </trkpt>
      <trkpt lat="44.52196" lon="5.75235">
        <ele>771</ele>
        <time>2022-06-09T21:50:40Z</time>
      </trkpt>
      <trkpt lat="44.52189" lon="5.75221">
        <ele>771</ele>
        <time>2022-06-09T21:50:43Z</time>
      </trkpt>
      <trkpt lat="44.52198" lon="5.75207">
        <ele>772</ele>
        <time>2022-06-09T21:50:46Z</time>
      </trkpt>
      <trkpt lat="44.522" lon="5.75207">
        <ele>772</ele>
        <time>2022-06-09T21:50:47Z</time>
      </trkpt>
      <trkpt lat="44.52201" lon="5.75195">
        <ele>773</ele>
        <time>2022-06-09T21:50:49Z</time>
      </trkpt>
      <trkpt lat="44.52204" lon="5.75189">
        <ele>773</ele>
        <time>2022-06-09T21:50:50Z</time>
      </trkpt>
      <trkpt lat="44.52197" lon="5.75206">
        <ele>772</ele>
        <time>2022-06-09T21:50:53Z</time>
      </trkpt>
      <trkpt lat="44.52193" lon="5.75225">
        <ele>771</ele>
        <time>2022-06-09T21:50:57Z</time>
      </trkpt>
      <trkpt lat="44.52191" lon="5.75226">
        <ele>771</ele>
        <time>2022-06-09T21:50:57Z</time>
      </trkpt>
      <trkpt lat="44.52178" lon="5.75202">
        <ele>771</ele>
        <time>2022-06-09T21:51:02Z</time>
      </trkpt>
      <trkpt lat="44.52168" lon="5.75194">
        <ele>770</ele>
        <time>2022-06-09T21:51:05Z</time>
      </trkpt>
      <trkpt lat="44.52131" lon="5.75143">
        <ele>771</ele>
        <time>2022-06-09T21:51:17Z</time>
      </trkpt>
      <trkpt lat="44.5211" lon="5.75121">
        <ele>770</ele>
        <time>2022-06-09T21:51:23Z</time>
      </trkpt>
      <trkpt lat="44.52098" lon="5.75116">
        <ele>770</ele>
        <time>2022-06-09T21:51:26Z</time>
      </trkpt>
      <trkpt lat="44.52076" lon="5.75112">
        <ele>768</ele>
        <time>2022-06-09T21:51:31Z</time>
      </trkpt>
      <trkpt lat="44.52068" lon="5.75112">
        <ele>767</ele>
        <time>2022-06-09T21:51:33Z</time>
      </trkpt>
      <trkpt lat="44.52057" lon="5.75133">
        <ele>767</ele>
        <time>2022-06-09T21:51:37Z</time>
      </trkpt>
      <trkpt lat="44.52047" lon="5.75237">
        <ele>765</ele>
        <time>2022-06-09T21:51:55Z</time>
      </trkpt>
      <trkpt lat="44.52034" lon="5.7526">
        <ele>764</ele>
        <time>2022-06-09T21:52:00Z</time>
      </trkpt>
      <trkpt lat="44.52014" lon="5.75281">
        <ele>762</ele>
        <time>2022-06-09T21:52:06Z</time>
      </trkpt>
      <trkpt lat="44.51948" lon="5.75317">
        <ele>760</ele>
        <time>2022-06-09T21:52:22Z</time>
      </trkpt>
      <trkpt lat="44.51723" lon="5.75453">
        <ele>756</ele>
        <time>2022-06-09T21:53:19Z</time>
      </trkpt>
      <trkpt lat="44.51672" lon="5.75481">
        <ele>755</ele>
        <time>2022-06-09T21:53:32Z</time>
      </trkpt>
      <trkpt lat="44.51648" lon="5.75497">
        <ele>755</ele>
        <time>2022-06-09T21:53:38Z</time>
      </trkpt>
      <trkpt lat="44.51624" lon="5.75517">
        <ele>755</ele>
        <time>2022-06-09T21:53:45Z</time>
      </trkpt>
      <trkpt lat="44.51609" lon="5.75523">
        <ele>754</ele>
        <time>2022-06-09T21:53:48Z</time>
      </trkpt>
      <trkpt lat="44.51552" lon="5.7556">
        <ele>755</ele>
        <time>2022-06-09T21:54:03Z</time>
      </trkpt>
      <trkpt lat="44.51514" lon="5.75589">
        <ele>758</ele>
        <time>2022-06-09T21:54:13Z</time>
      </trkpt>
      <trkpt lat="44.51503" lon="5.75594">
        <ele>759</ele>
        <time>2022-06-09T21:54:16Z</time>
      </trkpt>
      <trkpt lat="44.51487" lon="5.75606">
        <ele>763</ele>
        <time>2022-06-09T21:54:20Z</time>
      </trkpt>
      <trkpt lat="44.51468" lon="5.75614">
        <ele>766</ele>
        <time>2022-06-09T21:54:25Z</time>
      </trkpt>
      <trkpt lat="44.5146" lon="5.75622">
        <ele>768</ele>
        <time>2022-06-09T21:54:27Z</time>
      </trkpt>
      <trkpt lat="44.51406" lon="5.75656">
        <ele>773</ele>
        <time>2022-06-09T21:54:41Z</time>
      </trkpt>
      <trkpt lat="44.51394" lon="5.75668">
        <ele>773</ele>
        <time>2022-06-09T21:54:44Z</time>
      </trkpt>
      <trkpt lat="44.51387" lon="5.75671">
        <ele>774</ele>
        <time>2022-06-09T21:54:46Z</time>
      </trkpt>
      <trkpt lat="44.51368" lon="5.75688">
        <ele>776</ele>
        <time>2022-06-09T21:54:51Z</time>
      </trkpt>
      <trkpt lat="44.51364" lon="5.75689">
        <ele>776</ele>
        <time>2022-06-09T21:54:52Z</time>
      </trkpt>
      <trkpt lat="44.51292" lon="5.75767">
        <ele>776</ele>
        <time>2022-06-09T21:55:14Z</time>
      </trkpt>
      <trkpt lat="44.5125" lon="5.75796">
        <ele>778</ele>
        <time>2022-06-09T21:55:24Z</time>
      </trkpt>
      <trkpt lat="44.5122" lon="5.75809">
        <ele>778</ele>
        <time>2022-06-09T21:55:32Z</time>
      </trkpt>
      <trkpt lat="44.51185" lon="5.75816">
        <ele>778</ele>
        <time>2022-06-09T21:55:40Z</time>
      </trkpt>
      <trkpt lat="44.51154" lon="5.75816">
        <ele>778</ele>
        <time>2022-06-09T21:55:47Z</time>
      </trkpt>
      <trkpt lat="44.51118" lon="5.75811">
        <ele>780</ele>
        <time>2022-06-09T21:55:56Z</time>
      </trkpt>
      <trkpt lat="44.51091" lon="5.7581">
        <ele>782</ele>
        <time>2022-06-09T21:56:02Z</time>
      </trkpt>
      <trkpt lat="44.51037" lon="5.75802">
        <ele>784</ele>
        <time>2022-06-09T21:56:15Z</time>
      </trkpt>
      <trkpt lat="44.51028" lon="5.75803">
        <ele>784</ele>
        <time>2022-06-09T21:56:17Z</time>
      </trkpt>
      <trkpt lat="44.50998" lon="5.75798">
        <ele>785</ele>
        <time>2022-06-09T21:56:24Z</time>
      </trkpt>
      <trkpt lat="44.50953" lon="5.75796">
        <ele>787</ele>
        <time>2022-06-09T21:56:34Z</time>
      </trkpt>
      <trkpt lat="44.50877" lon="5.75787">
        <ele>791</ele>
        <time>2022-06-09T21:56:52Z</time>
      </trkpt>
      <trkpt lat="44.50818" lon="5.75785">
        <ele>793</ele>
        <time>2022-06-09T21:57:06Z</time>
      </trkpt>
      <trkpt lat="44.50782" lon="5.75793">
        <ele>797</ele>
        <time>2022-06-09T21:57:15Z</time>
      </trkpt>
      <trkpt lat="44.50752" lon="5.75805">
        <ele>799</ele>
        <time>2022-06-09T21:57:22Z</time>
      </trkpt>
      <trkpt lat="44.50739" lon="5.75815">
        <ele>800</ele>
        <time>2022-06-09T21:57:25Z</time>
      </trkpt>
      <trkpt lat="44.50696" lon="5.75838">
        <ele>802</ele>
        <time>2022-06-09T21:57:36Z</time>
      </trkpt>
      <trkpt lat="44.50652" lon="5.75875">
        <ele>804</ele>
        <time>2022-06-09T21:57:48Z</time>
      </trkpt>
      <trkpt lat="44.50601" lon="5.75941">
        <ele>809</ele>
        <time>2022-06-09T21:58:04Z</time>
      </trkpt>
      <trkpt lat="44.50578" lon="5.75976">
        <ele>810</ele>
        <time>2022-06-09T21:58:12Z</time>
      </trkpt>
      <trkpt lat="44.50567" lon="5.75999">
        <ele>810</ele>
        <time>2022-06-09T21:58:17Z</time>
      </trkpt>
      <trkpt lat="44.50559" lon="5.76035">
        <ele>813</ele>
        <time>2022-06-09T21:58:23Z</time>
      </trkpt>
      <trkpt lat="44.50558" lon="5.76068">
        <ele>816</ele>
        <time>2022-06-09T21:58:29Z</time>
      </trkpt>
      <trkpt lat="44.50564" lon="5.76107">
        <ele>818</ele>
        <time>2022-06-09T21:58:35Z</time>
      </trkpt>
      <trkpt lat="44.5058" lon="5.76143">
        <ele>820</ele>
        <time>2022-06-09T21:58:42Z</time>
      </trkpt>
      <trkpt lat="44.50632" lon="5.76202">
        <ele>820</ele>
        <time>2022-06-09T21:58:58Z</time>
      </trkpt>
      <trkpt lat="44.50672" lon="5.76234">
        <ele>821</ele>
        <time>2022-06-09T21:59:09Z</time>
      </trkpt>
      <trkpt lat="44.50692" lon="5.76256">
        <ele>822</ele>
        <time>2022-06-09T21:59:15Z</time>
      </trkpt>
      <trkpt lat="44.50774" lon="5.76334">
        <ele>823</ele>
        <time>2022-06-09T21:59:38Z</time>
      </trkpt>
      <trkpt lat="44.50789" lon="5.76356">
        <ele>822</ele>
        <time>2022-06-09T21:59:43Z</time>
      </trkpt>
      <trkpt lat="44.50801" lon="5.76401">
        <ele>821</ele>
        <time>2022-06-09T21:59:51Z</time>
      </trkpt>
      <trkpt lat="44.50808" lon="5.76419">
        <ele>822</ele>
        <time>2022-06-09T21:59:54Z</time>
      </trkpt>
      <trkpt lat="44.50827" lon="5.76448">
        <ele>819</ele>
        <time>2022-06-09T22:00:01Z</time>
      </trkpt>
      <trkpt lat="44.50842" lon="5.76462">
        <ele>819</ele>
        <time>2022-06-09T22:00:05Z</time>
      </trkpt>
      <trkpt lat="44.50906" lon="5.76491">
        <ele>820</ele>
        <time>2022-06-09T22:00:21Z</time>
      </trkpt>
      <trkpt lat="44.50926" lon="5.76514">
        <ele>819</ele>
        <time>2022-06-09T22:00:27Z</time>
      </trkpt>
      <trkpt lat="44.50941" lon="5.76546">
        <ele>817</ele>
        <time>2022-06-09T22:00:33Z</time>
      </trkpt>
      <trkpt lat="44.50988" lon="5.76766">
        <ele>809</ele>
        <time>2022-06-09T22:01:11Z</time>
      </trkpt>
      <trkpt lat="44.5099" lon="5.76803">
        <ele>808</ele>
        <time>2022-06-09T22:01:18Z</time>
      </trkpt>
      <trkpt lat="44.50987" lon="5.76865">
        <ele>804</ele>
        <time>2022-06-09T22:01:28Z</time>
      </trkpt>
      <trkpt lat="44.50992" lon="5.76901">
        <ele>803</ele>
        <time>2022-06-09T22:01:34Z</time>
      </trkpt>
      <trkpt lat="44.51004" lon="5.76935">
        <ele>802</ele>
        <time>2022-06-09T22:01:40Z</time>
      </trkpt>
      <trkpt lat="44.5102" lon="5.76968">
        <ele>803</ele>
        <time>2022-06-09T22:01:47Z</time>
      </trkpt>
      <trkpt lat="44.51037" lon="5.77016">
        <ele>802</ele>
        <time>2022-06-09T22:01:56Z</time>
      </trkpt>
      <trkpt lat="44.51049" lon="5.77083">
        <ele>797</ele>
        <time>2022-06-09T22:02:07Z</time>
      </trkpt>
      <trkpt lat="44.51163" lon="5.77421">
        <ele>782</ele>
        <time>2022-06-09T22:03:10Z</time>
      </trkpt>
      <trkpt lat="44.51184" lon="5.77492">
        <ele>781</ele>
        <time>2022-06-09T22:03:22Z</time>
      </trkpt>
      <trkpt lat="44.5119" lon="5.77522">
        <ele>781</ele>
        <time>2022-06-09T22:03:28Z</time>
      </trkpt>
      <trkpt lat="44.51186" lon="5.77587">
        <ele>780</ele>
        <time>2022-06-09T22:03:38Z</time>
      </trkpt>
      <trkpt lat="44.51176" lon="5.77627">
        <ele>777</ele>
        <time>2022-06-09T22:03:46Z</time>
      </trkpt>
      <trkpt lat="44.51157" lon="5.77667">
        <ele>775</ele>
        <time>2022-06-09T22:03:54Z</time>
      </trkpt>
      <trkpt lat="44.51145" lon="5.77679">
        <ele>774</ele>
        <time>2022-06-09T22:03:57Z</time>
      </trkpt>
      <trkpt lat="44.51133" lon="5.77697">
        <ele>774</ele>
        <time>2022-06-09T22:04:01Z</time>
      </trkpt>
      <trkpt lat="44.51092" lon="5.77785">
        <ele>774</ele>
        <time>2022-06-09T22:04:19Z</time>
      </trkpt>
      <trkpt lat="44.51071" lon="5.77818">
        <ele>775</ele>
        <time>2022-06-09T22:04:26Z</time>
      </trkpt>
      <trkpt lat="44.5107" lon="5.77825">
        <ele>775</ele>
        <time>2022-06-09T22:04:27Z</time>
      </trkpt>
      <trkpt lat="44.51081" lon="5.77861">
        <ele>775</ele>
        <time>2022-06-09T22:04:34Z</time>
      </trkpt>
      <trkpt lat="44.51129" lon="5.77938">
        <ele>775</ele>
        <time>2022-06-09T22:04:51Z</time>
      </trkpt>
      <trkpt lat="44.51196" lon="5.7803">
        <ele>774</ele>
        <time>2022-06-09T22:05:13Z</time>
      </trkpt>
      <trkpt lat="44.51226" lon="5.78078">
        <ele>774</ele>
        <time>2022-06-09T22:05:23Z</time>
      </trkpt>
      <trkpt lat="44.5131" lon="5.78229">
        <ele>774</ele>
        <time>2022-06-09T22:05:55Z</time>
      </trkpt>
      <trkpt lat="44.51512" lon="5.78574">
        <ele>778</ele>
        <time>2022-06-09T22:07:09Z</time>
      </trkpt>
      <trkpt lat="44.51523" lon="5.78603">
        <ele>778</ele>
        <time>2022-06-09T22:07:15Z</time>
      </trkpt>
      <trkpt lat="44.51565" lon="5.78664">
        <ele>779</ele>
        <time>2022-06-09T22:07:29Z</time>
      </trkpt>
      <trkpt lat="44.51573" lon="5.7868">
        <ele>779</ele>
        <time>2022-06-09T22:07:32Z</time>
      </trkpt>
      <trkpt lat="44.51572" lon="5.78684">
        <ele>779</ele>
        <time>2022-06-09T22:07:33Z</time>
      </trkpt>
      <trkpt lat="44.51593" lon="5.78713">
        <ele>782</ele>
        <time>2022-06-09T22:07:40Z</time>
      </trkpt>
      <trkpt lat="44.51609" lon="5.78749">
        <ele>784</ele>
        <time>2022-06-09T22:07:47Z</time>
      </trkpt>
      <trkpt lat="44.51625" lon="5.78769">
        <ele>786</ele>
        <time>2022-06-09T22:07:52Z</time>
      </trkpt>
      <trkpt lat="44.51641" lon="5.78803">
        <ele>786</ele>
        <time>2022-06-09T22:07:59Z</time>
      </trkpt>
      <trkpt lat="44.51734" lon="5.78961">
        <ele>787</ele>
        <time>2022-06-09T22:08:33Z</time>
      </trkpt>
      <trkpt lat="44.51748" lon="5.78995">
        <ele>785</ele>
        <time>2022-06-09T22:08:39Z</time>
      </trkpt>
      <trkpt lat="44.5183" lon="5.7915">
        <ele>787</ele>
        <time>2022-06-09T22:09:12Z</time>
      </trkpt>
      <trkpt lat="44.51888" lon="5.79276">
        <ele>788</ele>
        <time>2022-06-09T22:09:37Z</time>
      </trkpt>
      <trkpt lat="44.51897" lon="5.7929">
        <ele>788</ele>
        <time>2022-06-09T22:09:40Z</time>
      </trkpt>
      <trkpt lat="44.51903" lon="5.79309">
        <ele>787</ele>
        <time>2022-06-09T22:09:43Z</time>
      </trkpt>
      <trkpt lat="44.51926" lon="5.79343">
        <ele>788</ele>
        <time>2022-06-09T22:09:51Z</time>
      </trkpt>
      <trkpt lat="44.51948" lon="5.79393">
        <ele>788</ele>
        <time>2022-06-09T22:10:01Z</time>
      </trkpt>
      <trkpt lat="44.52023" lon="5.79541">
        <ele>788</ele>
        <time>2022-06-09T22:10:31Z</time>
      </trkpt>
      <trkpt lat="44.52053" lon="5.79595">
        <ele>790</ele>
        <time>2022-06-09T22:10:42Z</time>
      </trkpt>
      <trkpt lat="44.52074" lon="5.79646">
        <ele>790</ele>
        <time>2022-06-09T22:10:52Z</time>
      </trkpt>
      <trkpt lat="44.52084" lon="5.79659">
        <ele>790</ele>
        <time>2022-06-09T22:10:55Z</time>
      </trkpt>
      <trkpt lat="44.52096" lon="5.79687">
        <ele>790</ele>
        <time>2022-06-09T22:11:01Z</time>
      </trkpt>
      <trkpt lat="44.52124" lon="5.7974">
        <ele>790</ele>
        <time>2022-06-09T22:11:12Z</time>
      </trkpt>
      <trkpt lat="44.5214" lon="5.79779">
        <ele>790</ele>
        <time>2022-06-09T22:11:19Z</time>
      </trkpt>
      <trkpt lat="44.52169" lon="5.79836">
        <ele>791</ele>
        <time>2022-06-09T22:11:31Z</time>
      </trkpt>
      <trkpt lat="44.52177" lon="5.79847">
        <ele>792</ele>
        <time>2022-06-09T22:11:34Z</time>
      </trkpt>
      <trkpt lat="44.52181" lon="5.7986">
        <ele>792</ele>
        <time>2022-06-09T22:11:36Z</time>
      </trkpt>
      <trkpt lat="44.52265" lon="5.80021">
        <ele>794</ele>
        <time>2022-06-09T22:12:09Z</time>
      </trkpt>
      <trkpt lat="44.52288" lon="5.80067">
        <ele>794</ele>
        <time>2022-06-09T22:12:18Z</time>
      </trkpt>
      <trkpt lat="44.52295" lon="5.80086">
        <ele>794</ele>
        <time>2022-06-09T22:12:22Z</time>
      </trkpt>
      <trkpt lat="44.5232" lon="5.80129">
        <ele>796</ele>
        <time>2022-06-09T22:12:31Z</time>
      </trkpt>
      <trkpt lat="44.52344" lon="5.80178">
        <ele>797</ele>
        <time>2022-06-09T22:12:41Z</time>
      </trkpt>
      <trkpt lat="44.52386" lon="5.80254">
        <ele>800</ele>
        <time>2022-06-09T22:12:57Z</time>
      </trkpt>
      <trkpt lat="44.52391" lon="5.80258">
        <ele>800</ele>
        <time>2022-06-09T22:12:58Z</time>
      </trkpt>
      <trkpt lat="44.5241" lon="5.80303">
        <ele>801</ele>
        <time>2022-06-09T22:13:07Z</time>
      </trkpt>
      <trkpt lat="44.52472" lon="5.80422">
        <ele>801</ele>
        <time>2022-06-09T22:13:32Z</time>
      </trkpt>
      <trkpt lat="44.52485" lon="5.80442">
        <ele>801</ele>
        <time>2022-06-09T22:13:36Z</time>
      </trkpt>
      <trkpt lat="44.52509" lon="5.80497">
        <ele>801</ele>
        <time>2022-06-09T22:13:47Z</time>
      </trkpt>
      <trkpt lat="44.52576" lon="5.80617">
        <ele>805</ele>
        <time>2022-06-09T22:14:12Z</time>
      </trkpt>
      <trkpt lat="44.52598" lon="5.8066">
        <ele>805</ele>
        <time>2022-06-09T22:14:21Z</time>
      </trkpt>
      <trkpt lat="44.52598" lon="5.80664">
        <ele>806</ele>
        <time>2022-06-09T22:14:22Z</time>
      </trkpt>
      <trkpt lat="44.52693" lon="5.80844">
        <ele>807</ele>
        <time>2022-06-09T22:14:59Z</time>
      </trkpt>
      <trkpt lat="44.52706" lon="5.80874">
        <ele>807</ele>
        <time>2022-06-09T22:15:05Z</time>
      </trkpt>
      <trkpt lat="44.52714" lon="5.80885">
        <ele>807</ele>
        <time>2022-06-09T22:15:08Z</time>
      </trkpt>
      <trkpt lat="44.52826" lon="5.81105">
        <ele>811</ele>
        <time>2022-06-09T22:15:53Z</time>
      </trkpt>
      <trkpt lat="44.52968" lon="5.81374">
        <ele>812</ele>
        <time>2022-06-09T22:16:48Z</time>
      </trkpt>
      <trkpt lat="44.53031" lon="5.81507">
        <ele>812</ele>
        <time>2022-06-09T22:17:15Z</time>
      </trkpt>
      <trkpt lat="44.53077" lon="5.8159">
        <ele>814</ele>
        <time>2022-06-09T22:17:32Z</time>
      </trkpt>
      <trkpt lat="44.53103" lon="5.81625">
        <ele>814</ele>
        <time>2022-06-09T22:17:41Z</time>
      </trkpt>
      <trkpt lat="44.53109" lon="5.81636">
        <ele>814</ele>
        <time>2022-06-09T22:17:43Z</time>
      </trkpt>
      <trkpt lat="44.5311" lon="5.81643">
        <ele>814</ele>
        <time>2022-06-09T22:17:44Z</time>
      </trkpt>
      <trkpt lat="44.53164" lon="5.81742">
        <ele>814</ele>
        <time>2022-06-09T22:18:05Z</time>
      </trkpt>
      <trkpt lat="44.53195" lon="5.81819">
        <ele>815</ele>
        <time>2022-06-09T22:18:20Z</time>
      </trkpt>
      <trkpt lat="44.53213" lon="5.81886">
        <ele>816</ele>
        <time>2022-06-09T22:18:32Z</time>
      </trkpt>
      <trkpt lat="44.53223" lon="5.8191">
        <ele>817</ele>
        <time>2022-06-09T22:18:36Z</time>
      </trkpt>
      <trkpt lat="44.53234" lon="5.81929">
        <ele>817</ele>
        <time>2022-06-09T22:18:40Z</time>
      </trkpt>
      <trkpt lat="44.53282" lon="5.81981">
        <ele>820</ele>
        <time>2022-06-09T22:18:55Z</time>
      </trkpt>
      <trkpt lat="44.53295" lon="5.82001">
        <ele>821</ele>
        <time>2022-06-09T22:18:59Z</time>
      </trkpt>
      <trkpt lat="44.53296" lon="5.82006">
        <ele>821</ele>
        <time>2022-06-09T22:19:00Z</time>
      </trkpt>
      <trkpt lat="44.53294" lon="5.82005">
        <ele>821</ele>
        <time>2022-06-09T22:19:00Z</time>
      </trkpt>
      <trkpt lat="44.53293" lon="5.82007">
        <ele>821</ele>
        <time>2022-06-09T22:19:01Z</time>
      </trkpt>
      <trkpt lat="44.5329" lon="5.82001">
        <ele>821</ele>
        <time>2022-06-09T22:19:02Z</time>
      </trkpt>
    </trkseg>
  </trk>
</gpx>